Observation data for Boys Ranch on 11/17/2019      Previous  Date  Next       Current Mesonet Observations  Soil Data  Daily Summary Page  Observations in Plain Language
KBY1 170600Z 03012G17KT 13/M03 A3004 RMK A01 T01331029  RH  032%=      5-min Rain = 0
KBY1 170601Z 03014KT 13/M03 A3004 RMK A01 T01331029  RH  032%=      5-min Rain = 0
KBY1 170602Z 03014KT 13/M03 A3004 RMK A01 T01341029  RH  032%=      5-min Rain = 0
KBY1 170603Z 03011KT 13/M03 A3004 RMK A01 T01341029  RH  032%=      5-min Rain = 0
KBY1 170604Z 03013KT 13/M03 A3004 RMK A01 T01341029  RH  032%=      5-min Rain = 0
KBY1 170605Z 03013KT 13/M03 A3004 RMK A01 T01341029  RH  032%=      5-min Rain = 0
KBY1 170606Z 03013KT 13/M03 A3004 RMK A01 T01341029  RH  032%=      5-min Rain = 0
KBY1 170607Z 03011KT 13/M03 A3004 RMK A01 T01341029  RH  032%=      5-min Rain = 0
KBY1 170608Z 03012KT 13/M03 A3004 RMK A01 T01341029  RH  032%=      5-min Rain = 0
KBY1 170609Z 02014G19KT 13/M03 A3004 RMK A01 T01331029  RH  032%=      5-min Rain = 0
KBY1 170610Z 02013KT 13/M03 A3004 RMK A01 T01331029  RH  032%=      5-min Rain = 0
KBY1 170611Z 02011KT 13/M03 A3004 RMK A01 T01331029  RH  032%=      5-min Rain = 0
KBY1 170612Z 02014KT 13/M03 A3004 RMK A01 T01331030  RH  032%=      5-min Rain = 0
KBY1 170613Z 03015G20KT 13/M03 A3004 RMK A01 T01331029  RH  032%=      5-min Rain = 0
KBY1 170614Z 03013G19KT 13/M03 A3005 RMK A01 T01331029  RH  032%=      5-min Rain = 0
KBY1 170615Z 02011KT 13/M03 A3005 RMK A01 T01331029  RH  032%=      5-min Rain = 0
KBY1 170616Z 03016KT 13/M03 A3005 RMK A01 T01331029  RH  032%=      5-min Rain = 0
KBY1 170617Z 02014KT 13/M03 A3005 RMK A01 T01331030  RH  032%=      5-min Rain = 0
KBY1 170618Z 03014G19KT 13/M03 A3005 RMK A01 T01331030  RH  032%=      5-min Rain = 0
KBY1 170619Z 02013KT 13/M03 A3005 RMK A01 T01331030  RH  032%=      5-min Rain = 0
KBY1 170620Z 03013KT 13/M03 A3005 RMK A01 T01321030  RH  032%=      5-min Rain = 0
KBY1 170621Z 02013G20KT 13/M03 A3005 RMK A01 T01321030  RH  032%=      5-min Rain = 0
KBY1 170622Z 03014G19KT 13/M03 A3005 RMK A01 T01321030  RH  032%=      5-min Rain = 0
KBY1 170623Z 02015G21KT 13/M03 A3005 RMK A01 T01311030  RH  032%=      5-min Rain = 0
KBY1 170624Z 02016KT 13/M03 A3005 RMK A01 T01311030  RH  032%=      5-min Rain = 0
KBY1 170625Z 02015G20KT 13/M03 A3005 RMK A01 T01311030  RH  032%=      5-min Rain = 0
KBY1 170626Z 03011KT 13/M03 A3005 RMK A01 T01311030  RH  032%=      5-min Rain = 0
KBY1 170627Z 02012KT 13/M03 A3005 RMK A01 T01301031  RH  033%=      5-min Rain = 0
KBY1 170628Z 03012KT 13/M03 A3005 RMK A01 T01301031  RH  033%=      5-min Rain = 0
KBY1 170629Z 02014G20KT 13/M03 A3005 RMK A01 T01301030  RH  033%=      5-min Rain = 0
KBY1 170630Z 02013G18KT 13/M03 A3005 RMK A01 T01301030  RH  033%=      5-min Rain = 0
KBY1 170631Z 03013G19KT 13/M03 A3005 RMK A01 T01291030  RH  033%=      5-min Rain = 0
KBY1 170632Z 03014KT 13/M03 A3005 RMK A01 T01291030  RH  033%=      5-min Rain = 0
KBY1 170633Z 03011KT 13/M03 A3006 RMK A01 T01291030  RH  033%=      5-min Rain = 0
KBY1 170634Z 03015G21KT 13/M03 A3006 RMK A01 T01281031  RH  033%=      5-min Rain = 0
KBY1 170635Z 02014G20KT 13/M03 A3006 RMK A01 T01281031  RH  033%=      5-min Rain = 0
KBY1 170636Z 02014G20KT 13/M03 A3006 RMK A01 T01291030  RH  033%=      5-min Rain = 0
KBY1 170637Z 02014G19KT 13/M03 A3006 RMK A01 T01281031  RH  033%=      5-min Rain = 0
KBY1 170638Z 02013KT 13/M03 A3006 RMK A01 T01271031  RH  033%=      5-min Rain = 0
KBY1 170639Z 02013G21KT 13/M03 A3006 RMK A01 T01271030  RH  033%=      5-min Rain = 0
KBY1 170640Z 02018G27KT 13/M03 A3006 RMK A01 T01261030  RH  034%=      5-min Rain = 0
KBY1 170641Z 02017G22KT 13/M03 A3006 RMK A01 T01261030  RH  034%=      5-min Rain = 0
KBY1 170642Z 02017G23KT 13/M03 A3006 RMK A01 T01261029  RH  034%=      5-min Rain = 0
KBY1 170643Z 02016G22KT 13/M03 A3007 RMK A01 T01261029  RH  034%=      5-min Rain = 0
KBY1 170644Z 02018KT 13/M03 A3007 RMK A01 T01251029  RH  034%=      5-min Rain = 0
KBY1 170645Z 02015KT 12/M03 A3007 RMK A01 T01241028  RH  034%=      5-min Rain = 0
KBY1 170646Z 02018G23KT 12/M03 A3007 RMK A01 T01231028  RH  035%=      5-min Rain = 0
KBY1 170647Z 02016KT 12/M03 A3007 RMK A01 T01231027  RH  035%=      5-min Rain = 0
KBY1 170648Z 02014G19KT 12/M03 A3007 RMK A01 T01221027  RH  035%=      5-min Rain = 0
KBY1 170649Z 02013KT 12/M03 A3007 RMK A01 T01211027  RH  036%=      5-min Rain = 0
KBY1 170650Z 02016KT 12/M03 A3007 RMK A01 T01201027  RH  036%=      5-min Rain = 0
KBY1 170651Z 01013G20KT 12/M03 A3007 RMK A01 T01201026  RH  036%=      5-min Rain = 0
KBY1 170652Z 02017G22KT 12/M03 A3007 RMK A01 T01201026  RH  036%=      5-min Rain = 0
KBY1 170653Z 02016G22KT 12/M03 A3007 RMK A01 T01191025  RH  036%=      5-min Rain = 0
KBY1 170654Z 01016G21KT 12/M03 A3008 RMK A01 T01191025  RH  036%=      5-min Rain = 0
KBY1 170655Z 01014KT 12/M03 A3008 RMK A01 T01191025  RH  037%=      5-min Rain = 0
KBY1 170656Z 01018G25KT 12/M03 A3007 RMK A01 T01191025  RH  037%=      5-min Rain = 0
KBY1 170657Z 01016G21KT 12/M02 A3008 RMK A01 T01191024  RH  037%=      5-min Rain = 0
KBY1 170658Z 01014KT 12/M02 A3008 RMK A01 T01181024  RH  037%=      5-min Rain = 0
KBY1 170659Z 02016KT 12/M02 A3008 RMK A01 T01171024  RH  037%=      5-min Rain = 0
KBY1 170700Z 01020G26KT 12/M02 A3008 RMK A01 T01171023  RH  037%=      5-min Rain = 0
KBY1 170701Z 01021G28KT 12/M02 A3008 RMK A01 T01171023  RH  038%=      5-min Rain = 0
KBY1 170702Z 01016G22KT 12/M02 A3008 RMK A01 T01171023  RH  038%=      5-min Rain = 0
KBY1 170703Z 01015G24KT 12/M02 A3008 RMK A01 T01161023  RH  038%=      5-min Rain = 0
KBY1 170704Z 01015G23KT 12/M02 A3008 RMK A01 T01151022  RH  038%=      5-min Rain = 0
KBY1 170705Z 01016G21KT 12/M02 A3008 RMK A01 T01151022  RH  039%=      5-min Rain = 0
KBY1 170706Z 01013G18KT 11/M02 A3008 RMK A01 T01141021  RH  039%=      5-min Rain = 0
KBY1 170707Z 02018KT 11/M02 A3008 RMK A01 T01141021  RH  039%=      5-min Rain = 0
KBY1 170708Z 01017G23KT 11/M02 A3008 RMK A01 T01131020  RH  039%=      5-min Rain = 0
KBY1 170709Z 02019G25KT 11/M02 A3008 RMK A01 T01131019  RH  040%=      5-min Rain = 0
KBY1 170710Z 02014G20KT 11/M02 A3008 RMK A01 T01131019  RH  040%=      5-min Rain = 0
KBY1 170711Z 02015KT 11/M02 A3008 RMK A01 T01121019  RH  040%=      5-min Rain = 0
KBY1 170712Z 02017G25KT 11/M02 A3008 RMK A01 T01121019  RH  040%=      5-min Rain = 0
KBY1 170713Z 02015G21KT 11/M02 A3008 RMK A01 T01111018  RH  041%=      5-min Rain = 0
KBY1 170714Z 02015G22KT 11/M02 A3008 RMK A01 T01111017  RH  041%=      5-min Rain = 0
KBY1 170715Z 02015G20KT 11/M02 A3008 RMK A01 T01101017  RH  041%=      5-min Rain = 0
KBY1 170716Z 02016KT 11/M02 A3008 RMK A01 T01101016  RH  041%=      5-min Rain = 0
KBY1 170717Z 02017G22KT 11/M02 A3008 RMK A01 T01101015  RH  042%=      5-min Rain = 0
KBY1 170718Z 02019G24KT 11/M02 A3008 RMK A01 T01091015  RH  042%=      5-min Rain = 0
KBY1 170719Z 02015G20KT 11/M02 A3008 RMK A01 T01091015  RH  042%=      5-min Rain = 0
KBY1 170720Z 03015G21KT 11/M02 A3008 RMK A01 T01081015  RH  042%=      5-min Rain = 0
KBY1 170721Z 03017G25KT 11/M01 A3009 RMK A01 T01081014  RH  043%=      5-min Rain = 0
KBY1 170722Z 02017KT 11/M01 A3009 RMK A01 T01081014  RH  043%=      5-min Rain = 0
KBY1 170723Z 02016G24KT 11/M01 A3009 RMK A01 T01071014  RH  043%=      5-min Rain = 0
KBY1 170724Z 02013KT 11/M01 A3009 RMK A01 T01071013  RH  043%=      5-min Rain = 0
KBY1 170725Z 02017G22KT 11/M01 A3009 RMK A01 T01061014  RH  043%=      5-min Rain = 0
KBY1 170726Z 02019G26KT 11/M01 A3009 RMK A01 T01061013  RH  044%=      5-min Rain = 0
KBY1 170727Z 02018KT 11/M01 A3009 RMK A01 T01061012  RH  044%=      5-min Rain = 0
KBY1 170728Z 01015KT 11/M01 A3009 RMK A01 T01061012  RH  044%=      5-min Rain = 0
KBY1 170729Z 02016G23KT 11/M01 A301 RMK A01 T01051012  RH  044%=      5-min Rain = 0
KBY1 170730Z 02016KT 11/M01 A301 RMK A01 T01051012  RH  044%=      5-min Rain = 0
KBY1 170731Z 02015KT 10/M01 A301 RMK A01 T01041012  RH  044%=      5-min Rain = 0
KBY1 170732Z 02014KT 10/M01 A301 RMK A01 T01041012  RH  045%=      5-min Rain = 0
KBY1 170733Z 02016KT 10/M01 A301 RMK A01 T01031012  RH  045%=      5-min Rain = 0
KBY1 170734Z 01014G19KT 10/M01 A301 RMK A01 T01031012  RH  045%=      5-min Rain = 0
KBY1 170735Z 02016G22KT 10/M01 A301 RMK A01 T01021012  RH  045%=      5-min Rain = 0
KBY1 170736Z 01014G19KT 10/M01 A301 RMK A01 T01021011  RH  045%=      5-min Rain = 0
KBY1 170737Z 02012G19KT 10/M01 A301 RMK A01 T01021011  RH  046%=      5-min Rain = 0
KBY1 170738Z 02017KT 10/M01 A301 RMK A01 T01011011  RH  046%=      5-min Rain = 0
KBY1 170739Z 02017KT 10/M01 A301 RMK A01 T01011010  RH  046%=      5-min Rain = 0
KBY1 170740Z 01014G20KT 10/M01 A301 RMK A01 T01011010  RH  046%=      5-min Rain = 0
KBY1 170741Z 01019G26KT 10/M01 A301 RMK A01 T01011010  RH  046%=      5-min Rain = 0
KBY1 170742Z 02015KT 10/M01 A301 RMK A01 T01001010  RH  046%=      5-min Rain = 0
KBY1 170743Z 01016G25KT 10/M01 A301 RMK A01 T01001010  RH  046%=      5-min Rain = 0
KBY1 170744Z 01018KT 10/M01 A301 RMK A01 T01001009  RH  046%=      5-min Rain = 0
KBY1 170745Z 02019G26KT 10/M01 A301 RMK A01 T01001009  RH  047%=      5-min Rain = 0
KBY1 170746Z 01017KT 10/M01 A301 RMK A01 T01001009  RH  047%=      5-min Rain = 0
KBY1 170747Z 01018KT 10/M01 A301 RMK A01 T01011009  RH  047%=      5-min Rain = 0
KBY1 170748Z 02019G29KT 10/M01 A301 RMK A01 T01001009  RH  047%=      5-min Rain = 0
KBY1 170749Z 02017G23KT 10/M01 A301 RMK A01 T01001008  RH  047%=      5-min Rain = 0
KBY1 170750Z 01019G24KT 10/M01 A301 RMK A01 T01001008  RH  047%=      5-min Rain = 0
KBY1 170751Z 02017G24KT 10/M01 A301 RMK A01 T01001008  RH  047%=      5-min Rain = 0
KBY1 170752Z 02019G25KT 10/M01 A301 RMK A01 T00991008  RH  047%=      5-min Rain = 0
KBY1 170753Z 01021G30KT 10/M01 A301 RMK A01 T00991008  RH  047%=      5-min Rain = 0
KBY1 170754Z 01018G27KT 10/M01 A301 RMK A01 T01001008  RH  047%=      5-min Rain = 0
KBY1 170755Z 02015G20KT 10/M01 A301 RMK A01 T00991008  RH  047%=      5-min Rain = 0
KBY1 170756Z 02017G22KT 10/M01 A301 RMK A01 T00991008  RH  048%=      5-min Rain = 0
KBY1 170757Z 01017G23KT 10/M01 A301 RMK A01 T00991008  RH  048%=      5-min Rain = 0
KBY1 170758Z 01017G24KT 10/M01 A301 RMK A01 T00981008  RH  048%=      5-min Rain = 0
KBY1 170759Z 02021G31KT 10/M01 A301 RMK A01 T00981007  RH  048%=      5-min Rain = 0
KBY1 170800Z 02020G25KT 10/M01 A301 RMK A01 T00981007  RH  048%=      5-min Rain = 0
KBY1 170801Z 01016KT 10/M01 A301 RMK A01 T00981007  RH  048%=      5-min Rain = 0
KBY1 170802Z 01019G24KT 10/M01 A301 RMK A01 T00981008  RH  048%=      5-min Rain = 0
KBY1 170803Z 01017G22KT 10/M01 A301 RMK A01 T00971008  RH  048%=      5-min Rain = 0
KBY1 170804Z 01016G21KT 10/M01 A301 RMK A01 T00971007  RH  048%=      5-min Rain = 0
KBY1 170805Z 01016G21KT 10/M01 A301 RMK A01 T00971007  RH  048%=      5-min Rain = 0
KBY1 170806Z 02016G21KT 10/M01 A301 RMK A01 T00961008  RH  048%=      5-min Rain = 0
KBY1 170807Z 01014G20KT 10/M01 A301 RMK A01 T00961008  RH  048%=      5-min Rain = 0
KBY1 170808Z 02017G25KT 10/M01 A301 RMK A01 T00951008  RH  048%=      5-min Rain = 0
KBY1 170809Z 01016G23KT 10/M01 A301 RMK A01 T00951008  RH  049%=      5-min Rain = 0
KBY1 170810Z 01019G24KT 10/M01 A301 RMK A01 T00951008  RH  049%=      5-min Rain = 0
KBY1 170811Z 01016KT 10/M01 A301 RMK A01 T00951008  RH  049%=      5-min Rain = 0
KBY1 170812Z 02018G26KT 10/M01 A301 RMK A01 T00951008  RH  049%=      5-min Rain = 0
KBY1 170813Z 01020G25KT 10/M01 A301 RMK A01 T00951007  RH  049%=      5-min Rain = 0
KBY1 170814Z 02018KT 10/M01 A301 RMK A01 T00951008  RH  049%=      5-min Rain = 0
KBY1 170815Z 02019G25KT 10/M01 A301 RMK A01 T00951007  RH  049%=      5-min Rain = 0
KBY1 170816Z 01019G24KT 09/M01 A301 RMK A01 T00941007  RH  049%=      5-min Rain = 0
KBY1 170817Z 02017KT 09/M01 A301 RMK A01 T00941007  RH  049%=      5-min Rain = 0
KBY1 170818Z 02017G24KT 09/M01 A301 RMK A01 T00941007  RH  049%=      5-min Rain = 0
KBY1 170819Z 01018G24KT 09/M01 A301 RMK A01 T00941006  RH  050%=      5-min Rain = 0
KBY1 170820Z 01016KT 09/M01 A301 RMK A01 T00941006  RH  050%=      5-min Rain = 0
KBY1 170821Z 01020G25KT 09/M01 A301 RMK A01 T00931006  RH  050%=      5-min Rain = 0
KBY1 170822Z 01016G21KT 09/M01 A301 RMK A01 T00931005  RH  050%=      5-min Rain = 0
KBY1 170823Z 02017G24KT 09/M01 A301 RMK A01 T00931006  RH  050%=      5-min Rain = 0
KBY1 170824Z 02018KT 09/M01 A301 RMK A01 T00921006  RH  050%=      5-min Rain = 0
KBY1 170825Z 02017G23KT 09/M01 A301 RMK A01 T00921006  RH  051%=      5-min Rain = 0
KBY1 170826Z 02017G22KT 09/M01 A301 RMK A01 T00921005  RH  051%=      5-min Rain = 0
KBY1 170827Z 02017KT 09/M01 A301 RMK A01 T00911005  RH  051%=      5-min Rain = 0
KBY1 170828Z 02019KT 09/M01 A301 RMK A01 T00921005  RH  051%=      5-min Rain = 0
KBY1 170829Z 02016G23KT 09/M01 A301 RMK A01 T00911005  RH  051%=      5-min Rain = 0
KBY1 170830Z 02016G25KT 09/M01 A301 RMK A01 T00911005  RH  051%=      5-min Rain = 0
KBY1 170831Z 01016KT 09/M01 A301 RMK A01 T00911005  RH  051%=      5-min Rain = 0
KBY1 170832Z 02015G20KT 09/M01 A301 RMK A01 T00901005  RH  051%=      5-min Rain = 0
KBY1 170833Z 02012G18KT 09/M01 A301 RMK A01 T00901005  RH  051%=      5-min Rain = 0
KBY1 170834Z 01014G19KT 09/M01 A301 RMK A01 T00901005  RH  051%=      5-min Rain = 0
KBY1 170835Z 01011G18KT 09/M01 A301 RMK A01 T00891005  RH  052%=      5-min Rain = 0
KBY1 170836Z 02015G23KT 09/M01 A301 RMK A01 T00891005  RH  052%=      5-min Rain = 0
KBY1 170837Z 02015G21KT 09/M01 A3011 RMK A01 T00881005  RH  052%=      5-min Rain = 0
KBY1 170838Z 02015G21KT 09/M01 A3011 RMK A01 T00881005  RH  052%=      5-min Rain = 0
KBY1 170839Z 02021G29KT 09/M01 A3011 RMK A01 T00881005  RH  052%=      5-min Rain = 0
KBY1 170840Z 02014KT 09/M01 A3011 RMK A01 T00891005  RH  052%=      5-min Rain = 0
KBY1 170841Z 02016G21KT 09/M01 A3011 RMK A01 T00891005  RH  052%=      5-min Rain = 0
KBY1 170842Z 02018G23KT 09/M01 A3011 RMK A01 T00881005  RH  052%=      5-min Rain = 0
KBY1 170843Z 02013G22KT 09/M01 A3011 RMK A01 T00881005  RH  052%=      5-min Rain = 0
KBY1 170844Z 01016G25KT 09/M01 A3011 RMK A01 T00881005  RH  052%=      5-min Rain = 0
KBY1 170845Z 02013KT 09/M01 A3011 RMK A01 T00881005  RH  052%=      5-min Rain = 0
KBY1 170846Z 02017G23KT 09/M01 A3011 RMK A01 T00871005  RH  052%=      5-min Rain = 0
KBY1 170847Z 02014KT 09/M01 A3011 RMK A01 T00871005  RH  052%=      5-min Rain = 0
KBY1 170848Z 02012G17KT 09/M01 A3011 RMK A01 T00861006  RH  052%=      5-min Rain = 0
KBY1 170849Z 02017G23KT 09/M01 A3012 RMK A01 T00861005  RH  053%=      5-min Rain = 0
KBY1 170850Z 02015KT 09/M01 A3011 RMK A01 T00861005  RH  053%=      5-min Rain = 0
KBY1 170851Z 02018KT 09/M01 A3012 RMK A01 T00861006  RH  053%=      5-min Rain = 0
KBY1 170852Z 01016KT 09/M01 A3012 RMK A01 T00861006  RH  053%=      5-min Rain = 0
KBY1 170853Z 01015KT 09/M01 A3012 RMK A01 T00861005  RH  053%=      5-min Rain = 0
KBY1 170854Z 01013KT 09/M01 A3012 RMK A01 T00861005  RH  053%=      5-min Rain = 0
KBY1 170855Z 02013KT 09/M01 A3012 RMK A01 T00851006  RH  053%=      5-min Rain = 0
KBY1 170856Z 01012KT 09/M01 A3012 RMK A01 T00851005  RH  053%=      5-min Rain = 0
KBY1 170857Z 02012G17KT 08/M01 A3012 RMK A01 T00841005  RH  053%=      5-min Rain = 0
KBY1 170858Z 02011KT 08/M01 A3012 RMK A01 T00841005  RH  054%=      5-min Rain = 0
KBY1 170859Z 02013G23KT 08/M01 A3012 RMK A01 T00841005  RH  054%=      5-min Rain = 0
KBY1 170900Z 02016G23KT 08/M01 A3012 RMK A01 T00841005  RH  054%=      5-min Rain = 0
KBY1 170901Z 01014G19KT 08/M01 A3012 RMK A01 T00841005  RH  054%=      5-min Rain = 0
KBY1 170902Z 02014G20KT 08/M01 A3012 RMK A01 T00841005  RH  054%=      5-min Rain = 0
KBY1 170903Z 02011KT 08/M01 A3012 RMK A01 T00841005  RH  054%=      5-min Rain = 0
KBY1 170904Z 03011KT 08/M01 A3012 RMK A01 T00841005  RH  054%=      5-min Rain = 0
KBY1 170905Z 02008KT 08/M01 A3012 RMK A01 T00831005  RH  054%=      5-min Rain = 0
KBY1 170906Z 03015G21KT 08/M01 A3012 RMK A01 T00821005  RH  054%=      5-min Rain = 0
KBY1 170907Z 03014KT 08/M01 A3012 RMK A01 T00821005  RH  054%=      5-min Rain = 0
KBY1 170908Z 02014KT 08/M01 A3012 RMK A01 T00821005  RH  054%=      5-min Rain = 0
KBY1 170909Z 02011G16KT 08/M01 A3013 RMK A01 T00831005  RH  054%=      5-min Rain = 0
KBY1 170910Z 02012G19KT 08/M01 A3013 RMK A01 T00821005  RH  054%=      5-min Rain = 0
KBY1 170911Z 01013G18KT 08/M01 A3012 RMK A01 T00821005  RH  054%=      5-min Rain = 0
KBY1 170912Z 02013KT 08/M01 A3012 RMK A01 T00821005  RH  054%=      5-min Rain = 0
KBY1 170913Z 02010KT 08/M01 A3012 RMK A01 T00821005  RH  054%=      5-min Rain = 0
KBY1 170914Z 02009KT 08/M01 A3013 RMK A01 T00821005  RH  054%=      5-min Rain = 0
KBY1 170915Z 01008KT 08/M01 A3013 RMK A01 T00811005  RH  055%=      5-min Rain = 0
KBY1 170916Z 03011G16KT 08/M00 A3013 RMK A01 T00811004  RH  055%=      5-min Rain = 0
KBY1 170917Z 03009G16KT 08/M00 A3013 RMK A01 T00801004  RH  055%=      5-min Rain = 0
KBY1 170918Z 02007KT 08/M00 A3013 RMK A01 T00811004  RH  055%=      5-min Rain = 0
KBY1 170919Z 03008G13KT 08/M00 A3013 RMK A01 T00811004  RH  055%=      5-min Rain = 0
KBY1 170920Z 02007KT 08/M00 A3013 RMK A01 T00811004  RH  055%=      5-min Rain = 0
KBY1 170921Z 02011G16KT 08/M00 A3013 RMK A01 T00811004  RH  055%=      5-min Rain = 0
KBY1 170922Z 03010G15KT 08/M00 A3013 RMK A01 T00801004  RH  055%=      5-min Rain = 0
KBY1 170923Z 03009KT 08/M00 A3013 RMK A01 T00811003  RH  055%=      5-min Rain = 0
KBY1 170924Z 02007KT 08/M00 A3013 RMK A01 T00801004  RH  055%=      5-min Rain = 0
KBY1 170925Z 03012KT 08/M00 A3013 RMK A01 T00801004  RH  055%=      5-min Rain = 0
KBY1 170926Z 03009G14KT 08/M00 A3013 RMK A01 T00801004  RH  055%=      5-min Rain = 0
KBY1 170927Z 07007KT 08/M00 A3013 RMK A01 T00811003  RH  055%=      5-min Rain = 0
KBY1 170928Z 06006KT 08/M00 A3014 RMK A01 T00801004  RH  055%=      5-min Rain = 0
KBY1 170929Z 04005KT 08/M00 A3013 RMK A01 T00801003  RH  056%=      5-min Rain = 0
KBY1 170930Z 06005KT 08/M00 A3014 RMK A01 T00801004  RH  056%=      5-min Rain = 0
KBY1 170931Z 04003KT 08/M00 A3014 RMK A01 T00801003  RH  056%=      5-min Rain = 0
KBY1 170932Z 04002KT 08/M00 A3014 RMK A01 T00791004  RH  056%=      5-min Rain = 0
KBY1 170933Z 03003KT 08/M00 A3014 RMK A01 T00781004  RH  056%=      5-min Rain = 0
KBY1 170934Z 00003KT 08/M00 A3014 RMK A01 T00781003  RH  056%=      5-min Rain = 0
KBY1 170935Z 02003KT 08/M00 A3014 RMK A01 T00781003  RH  056%=      5-min Rain = 0
KBY1 170936Z 07004KT 08/M00 A3014 RMK A01 T00781003  RH  057%=      5-min Rain = 0
KBY1 170937Z 13004KT 08/M00 A3014 RMK A01 T00781003  RH  056%=      5-min Rain = 0
KBY1 170938Z 10004KT 08/M00 A3014 RMK A01 T00771003  RH  057%=      5-min Rain = 0
KBY1 170939Z 30002KT 08/M00 A3014 RMK A01 T00781003  RH  057%=      5-min Rain = 0
KBY1 170940Z 26003KT 08/M00 A3014 RMK A01 T00781003  RH  056%=      5-min Rain = 0
KBY1 170941Z 23003KT 08/M00 A3014 RMK A01 T00781004  RH  056%=      5-min Rain = 0
KBY1 170942Z 17003KT 08/M00 A3015 RMK A01 T00771003  RH  057%=      5-min Rain = 0
KBY1 170943Z 17003KT 08/M00 A3015 RMK A01 T00761004  RH  057%=      5-min Rain = 0
KBY1 170944Z 14003KT 07/M01 A3015 RMK A01 T00741005  RH  057%=      5-min Rain = 0
KBY1 170945Z 12002KT 07/M00 A3015 RMK A01 T00731004  RH  058%=      5-min Rain = 0
KBY1 170946Z 15004KT 07/M00 A3015 RMK A01 T00721004  RH  058%=      5-min Rain = 0
KBY1 170947Z 15002KT 07/M00 A3015 RMK A01 T00731003  RH  059%=      5-min Rain = 0
KBY1 170948Z 18002KT 07/M00 A3015 RMK A01 T00731003  RH  058%=      5-min Rain = 0
KBY1 170949Z 20003KT 07/M01 A3015 RMK A01 T00721005  RH  058%=      5-min Rain = 0
KBY1 170950Z 22003KT 07/M01 A3015 RMK A01 T00711005  RH  058%=      5-min Rain = 0
KBY1 170951Z 20002KT 07/M01 A3015 RMK A01 T00681006  RH  059%=      5-min Rain = 0
KBY1 170952Z 11002KT 07/M00 A3015 RMK A01 T00691003  RH  060%=      5-min Rain = 0
KBY1 170953Z 11003KT 07/M00 A3016 RMK A01 T00711002  RH  060%=      5-min Rain = 0
KBY1 170954Z 10002KT 07/M00 A3016 RMK A01 T00711003  RH  059%=      5-min Rain = 0
KBY1 170955Z 09002KT 07/M00 A3016 RMK A01 T00711003  RH  059%=      5-min Rain = 0
KBY1 170956Z 13002KT 07/M00 A3016 RMK A01 T00701004  RH  059%=      5-min Rain = 0
KBY1 170957Z 15001KT 07/M01 A3016 RMK A01 T00691005  RH  060%=      5-min Rain = 0
KBY1 170958Z 25001KT 07/M00 A3016 RMK A01 T00681004  RH  060%=      5-min Rain = 0
KBY1 170959Z 23003KT 07/M01 A3016 RMK A01 T00671005  RH  060%=      5-min Rain = 0
KBY1 171000Z 22003KT 07/M00 A3016 RMK A01 T00661004  RH  061%=      5-min Rain = 0
KBY1 171001Z 20003KT 07/M01 A3016 RMK A01 T00651005  RH  061%=      5-min Rain = 0
KBY1 171002Z 19003KT 07/M01 A3016 RMK A01 T00651005  RH  061%=      5-min Rain = 0
KBY1 171003Z 16002KT 07/M00 A3016 RMK A01 T00651003  RH  062%=      5-min Rain = 0
KBY1 171004Z 14001KT 07/M00 A3016 RMK A01 T00671003  RH  061%=      5-min Rain = 0
KBY1 171005Z 28000KT 07/M00 A3016 RMK A01 T00671003  RH  061%=      5-min Rain = 0
KBY1 171006Z 27001KT 07/M00 A3016 RMK A01 T00661004  RH  061%=      5-min Rain = 0
KBY1 171007Z 27003KT 07/M00 A3016 RMK A01 T00651003  RH  061%=      5-min Rain = 0
KBY1 171008Z 31004KT 07/M00 A3016 RMK A01 T00671002  RH  061%=      5-min Rain = 0
KBY1 171009Z 08002KT 07/M00 A3016 RMK A01 T00691001  RH  061%=      5-min Rain = 0
KBY1 171010Z 03004KT 07/00 A3016 RMK A01 T00730000  RH  060%=      5-min Rain = 0
KBY1 171011Z 06005KT 07/M00 A3017 RMK A01 T00741001  RH  059%=      5-min Rain = 0
KBY1 171012Z 02005KT 07/M00 A3017 RMK A01 T00741002  RH  059%=      5-min Rain = 0
KBY1 171013Z 03006KT 07/M00 A3017 RMK A01 T00741002  RH  059%=      5-min Rain = 0
KBY1 171014Z 02008KT 07/M00 A3017 RMK A01 T00741001  RH  059%=      5-min Rain = 0
KBY1 171015Z 06005KT 07/M00 A3017 RMK A01 T00741001  RH  059%=      5-min Rain = 0
KBY1 171016Z 03004KT 08/M00 A3017 RMK A01 T00751001  RH  059%=      5-min Rain = 0
KBY1 171017Z 01004KT 08/M00 A3017 RMK A01 T00751002  RH  058%=      5-min Rain = 0
KBY1 171018Z 02008KT 08/M00 A3017 RMK A01 T00751002  RH  058%=      5-min Rain = 0
KBY1 171019Z 03008KT 07/M00 A3017 RMK A01 T00741002  RH  059%=      5-min Rain = 0
KBY1 171020Z 03008KT 07/M00 A3017 RMK A01 T00741001  RH  059%=      5-min Rain = 0
KBY1 171021Z 02009KT 07/M00 A3017 RMK A01 T00741001  RH  059%=      5-min Rain = 0
KBY1 171022Z 02005KT 08/M00 A3017 RMK A01 T00751001  RH  059%=      5-min Rain = 0
KBY1 171023Z 01007KT 08/M00 A3017 RMK A01 T00761001  RH  058%=      5-min Rain = 0
KBY1 171024Z 01007KT 08/M00 A3017 RMK A01 T00751001  RH  058%=      5-min Rain = 0
KBY1 171025Z 36010KT 08/M00 A3017 RMK A01 T00751001  RH  058%=      5-min Rain = 0
KBY1 171026Z 02008KT 08/M00 A3017 RMK A01 T00751001  RH  059%=      5-min Rain = 0
KBY1 171027Z 02006KT 08/M00 A3017 RMK A01 T00751001  RH  059%=      5-min Rain = 0
KBY1 171028Z 01008KT 07/M00 A3017 RMK A01 T00741001  RH  059%=      5-min Rain = 0
KBY1 171029Z 04004KT 07/M00 A3017 RMK A01 T00741001  RH  059%=      5-min Rain = 0
KBY1 171030Z 02004KT 07/M00 A3017 RMK A01 T00731002  RH  059%=      5-min Rain = 0
KBY1 171031Z 02006KT 07/M00 A3017 RMK A01 T00711003  RH  059%=      5-min Rain = 0
KBY1 171032Z 02006KT 07/M00 A3017 RMK A01 T00691003  RH  060%=      5-min Rain = 0
KBY1 171033Z 02006KT 07/M00 A3017 RMK A01 T00691002  RH  060%=      5-min Rain = 0
KBY1 171034Z 01010KT 07/M00 A3017 RMK A01 T00691002  RH  061%=      5-min Rain = 0
KBY1 171035Z 01008KT 07/00 A3017 RMK A01 T007100-0  RH  061%=      5-min Rain = 0
KBY1 171036Z 02009KT 07/00 A3017 RMK A01 T007200-0  RH  060%=      5-min Rain = 0
KBY1 171037Z 01005KT 07/M00 A3017 RMK A01 T00721001  RH  060%=      5-min Rain = 0
KBY1 171038Z 02006KT 07/M00 A3018 RMK A01 T00701002  RH  060%=      5-min Rain = 0
KBY1 171039Z 02009KT 07/M00 A3017 RMK A01 T00691001  RH  061%=      5-min Rain = 0
KBY1 171040Z 03012KT 07/00 A3018 RMK A01 T00690000  RH  062%=      5-min Rain = 0
KBY1 171041Z 02008KT 07/00 A3018 RMK A01 T00700001  RH  062%=      5-min Rain = 0
KBY1 171042Z 02009KT 07/00 A3018 RMK A01 T00700001  RH  061%=      5-min Rain = 0
KBY1 171043Z 01008KT 07/00 A3018 RMK A01 T00700001  RH  061%=      5-min Rain = 0
KBY1 171044Z 35009G15KT 07/00 A3018 RMK A01 T00700001  RH  061%=      5-min Rain = 0
KBY1 171045Z 00010KT 07/00 A3018 RMK A01 T00700001  RH  062%=      5-min Rain = 0
KBY1 171046Z 01009KT 07/00 A3018 RMK A01 T00700001  RH  062%=      5-min Rain = 0
KBY1 171047Z 01006KT 07/00 A3018 RMK A01 T00700001  RH  062%=      5-min Rain = 0
KBY1 171048Z 00006KT 07/00 A3018 RMK A01 T00690001  RH  062%=      5-min Rain = 0
KBY1 171049Z 02008KT 07/00 A3018 RMK A01 T00680001  RH  062%=      5-min Rain = 0
KBY1 171050Z 01008KT 07/00 A3018 RMK A01 T00670002  RH  063%=      5-min Rain = 0
KBY1 171051Z 01008KT 07/00 A3018 RMK A01 T00670002  RH  063%=      5-min Rain = 0
KBY1 171052Z 00006KT 07/00 A3018 RMK A01 T00680002  RH  063%=      5-min Rain = 0
KBY1 171053Z 01005KT 07/00 A3018 RMK A01 T00670001  RH  063%=      5-min Rain = 0
KBY1 171054Z 01007KT 07/00 A3018 RMK A01 T00660002  RH  064%=      5-min Rain = 0
KBY1 171055Z 36007KT 07/00 A3018 RMK A01 T00660003  RH  064%=      5-min Rain = 0
KBY1 171056Z 00005KT 07/00 A3018 RMK A01 T00650003  RH  064%=      5-min Rain = 0
KBY1 171057Z 00007KT 07/00 A3018 RMK A01 T00650004  RH  065%=      5-min Rain = 0
KBY1 171058Z 00008KT 07/01 A3018 RMK A01 T00650005  RH  066%=      5-min Rain = 0
KBY1 171059Z 36007KT 07/01 A3018 RMK A01 T00660008  RH  066%=      5-min Rain = 0
KBY1 171100Z 36008G13KT 07/01 A3018 RMK A01 T00670008  RH  066%=      5-min Rain = 0
KBY1 171101Z 01009G14KT 07/01 A3018 RMK A01 T00670008  RH  066%=      5-min Rain = 0
KBY1 171102Z 01009KT 07/01 A3018 RMK A01 T00670009  RH  066%=      5-min Rain = 0
KBY1 171103Z 00007KT 07/01 A3018 RMK A01 T00680009  RH  066%=      5-min Rain = 0
KBY1 171104Z 36006KT 07/01 A3019 RMK A01 T00680009  RH  066%=      5-min Rain = 0
KBY1 171105Z 01004KT 07/01 A3019 RMK A01 T00670008  RH  066%=      5-min Rain = 0
KBY1 171106Z 00008KT 07/01 A3019 RMK A01 T00660008  RH  066%=      5-min Rain = 0
KBY1 171107Z 36008KT 07/01 A3019 RMK A01 T00660008  RH  067%=      5-min Rain = 0
KBY1 171108Z 01009KT 07/01 A3019 RMK A01 T00670009  RH  067%=      5-min Rain = 0
KBY1 171109Z 02007KT 07/01 A3019 RMK A01 T00680011  RH  067%=      5-min Rain = 0
KBY1 171110Z 00005KT 07/01 A3019 RMK A01 T00680010  RH  066%=      5-min Rain = 0
KBY1 171111Z 01006KT 07/01 A3019 RMK A01 T00680009  RH  066%=      5-min Rain = 0
KBY1 171112Z 36005KT 07/01 A3019 RMK A01 T00660009  RH  067%=      5-min Rain = 0
KBY1 171113Z 36003KT 07/01 A3019 RMK A01 T00660009  RH  067%=      5-min Rain = 0
KBY1 171114Z 01004KT 07/01 A3019 RMK A01 T00650008  RH  067%=      5-min Rain = 0
KBY1 171115Z 00005KT 06/01 A3019 RMK A01 T00640008  RH  067%=      5-min Rain = 0
KBY1 171116Z 00005KT 06/01 A3019 RMK A01 T00640009  RH  068%=      5-min Rain = 0
KBY1 171117Z 36003KT 06/01 A302 RMK A01 T00640009  RH  068%=      5-min Rain = 0
KBY1 171118Z 35003KT 06/01 A302 RMK A01 T00640009  RH  068%=      5-min Rain = 0
KBY1 171119Z 00003KT 06/01 A302 RMK A01 T00630008  RH  068%=      5-min Rain = 0
KBY1 171120Z 35005KT 06/01 A302 RMK A01 T00630010  RH  069%=      5-min Rain = 0
KBY1 171121Z 00008KT 06/01 A302 RMK A01 T00630011  RH  069%=      5-min Rain = 0
KBY1 171122Z 34005KT 06/01 A302 RMK A01 T00640012  RH  069%=      5-min Rain = 0
KBY1 171123Z 35008KT 07/01 A302 RMK A01 T00650012  RH  069%=      5-min Rain = 0
KBY1 171124Z 35007KT 07/01 A302 RMK A01 T00650013  RH  069%=      5-min Rain = 0
KBY1 171125Z 34006KT 07/01 A302 RMK A01 T00660013  RH  069%=      5-min Rain = 0
KBY1 171126Z 35007KT 07/01 A302 RMK A01 T00660012  RH  069%=      5-min Rain = 0
KBY1 171127Z 33005KT 07/01 A302 RMK A01 T00650012  RH  069%=      5-min Rain = 0
KBY1 171128Z 35006KT 07/01 A302 RMK A01 T00650012  RH  069%=      5-min Rain = 0
KBY1 171129Z 34004KT 06/01 A302 RMK A01 T00640012  RH  069%=      5-min Rain = 0
KBY1 171130Z 35004KT 06/01 A302 RMK A01 T00630012  RH  070%=      5-min Rain = 0
KBY1 171131Z 35004KT 06/01 A302 RMK A01 T00630012  RH  070%=      5-min Rain = 0
KBY1 171132Z 31004KT 06/01 A302 RMK A01 T00620011  RH  070%=      5-min Rain = 0
KBY1 171133Z 32005KT 06/01 A302 RMK A01 T00610012  RH  071%=      5-min Rain = 0
KBY1 171134Z 35004KT 06/01 A302 RMK A01 T00610012  RH  071%=      5-min Rain = 0
KBY1 171135Z 31003KT 06/01 A302 RMK A01 T00610013  RH  071%=      5-min Rain = 0
KBY1 171136Z 27003KT 06/01 A3021 RMK A01 T00610012  RH  071%=      5-min Rain = 0
KBY1 171137Z 31004KT 06/01 A3021 RMK A01 T00610011  RH  070%=      5-min Rain = 0
KBY1 171138Z 33004KT 06/01 A3021 RMK A01 T00600012  RH  071%=      5-min Rain = 0
KBY1 171139Z 36004KT 06/01 A3021 RMK A01 T00600012  RH  071%=      5-min Rain = 0
KBY1 171140Z 34004KT 06/01 A3021 RMK A01 T00600013  RH  071%=      5-min Rain = 0
KBY1 171141Z 30003KT 06/01 A3021 RMK A01 T00610013  RH  071%=      5-min Rain = 0
KBY1 171142Z 32004KT 06/01 A3021 RMK A01 T00620013  RH  071%=      5-min Rain = 0
KBY1 171143Z 34004KT 06/01 A3021 RMK A01 T00620012  RH  070%=      5-min Rain = 0
KBY1 171144Z 34004KT 06/01 A3021 RMK A01 T00610012  RH  071%=      5-min Rain = 0
KBY1 171145Z 33003KT 06/01 A3021 RMK A01 T00610012  RH  071%=      5-min Rain = 0
KBY1 171146Z 34005KT 06/01 A3021 RMK A01 T00610012  RH  071%=      5-min Rain = 0
KBY1 171147Z 33003KT 06/01 A3021 RMK A01 T00600012  RH  071%=      5-min Rain = 0
KBY1 171148Z 29002KT 06/01 A3021 RMK A01 T00590012  RH  071%=      5-min Rain = 0
KBY1 171149Z 33003KT 06/01 A3021 RMK A01 T00580011  RH  072%=      5-min Rain = 0
KBY1 171150Z 34003KT 06/01 A3021 RMK A01 T00580012  RH  072%=      5-min Rain = 0
KBY1 171151Z 30004KT 06/01 A3021 RMK A01 T00580012  RH  072%=      5-min Rain = 0
KBY1 171152Z 32005KT 06/01 A3021 RMK A01 T00580013  RH  073%=      5-min Rain = 0
KBY1 171153Z 35003KT 06/01 A3021 RMK A01 T00600013  RH  072%=      5-min Rain = 0
KBY1 171154Z 35005KT 06/01 A3021 RMK A01 T00590012  RH  071%=      5-min Rain = 0
KBY1 171155Z 34005KT 06/01 A3021 RMK A01 T00590013  RH  072%=      5-min Rain = 0
KBY1 171156Z 00006KT 06/01 A3021 RMK A01 T00590013  RH  072%=      5-min Rain = 0
KBY1 171157Z 35005KT 06/01 A3021 RMK A01 T00600014  RH  073%=      5-min Rain = 0
KBY1 171158Z 34003KT 06/01 A3021 RMK A01 T00610014  RH  072%=      5-min Rain = 0
KBY1 171159Z 00005KT 06/01 A3021 RMK A01 T00600012  RH  072%=      5-min Rain = 0
KBY1 171200Z 35006KT 06/01 A3022 RMK A01 T00590013  RH  072%=      5-min Rain = 0
KBY1 171201Z 01005KT 06/01 A3021 RMK A01 T00590014  RH  073%=      5-min Rain = 0
KBY1 171202Z 36004KT 06/01 A3022 RMK A01 T00600014  RH  072%=      5-min Rain = 0
KBY1 171203Z 36004KT 06/01 A3022 RMK A01 T00600014  RH  072%=      5-min Rain = 0
KBY1 171204Z 36007KT 06/01 A3021 RMK A01 T00600014  RH  072%=      5-min Rain = 0
KBY1 171205Z 01007KT 06/02 A3021 RMK A01 T00600015  RH  073%=      5-min Rain = 0
KBY1 171206Z 00007KT 06/02 A3021 RMK A01 T00610015  RH  072%=      5-min Rain = 0
KBY1 171207Z 36007KT 06/02 A3021 RMK A01 T00610015  RH  072%=      5-min Rain = 0
KBY1 171208Z 01006KT 06/02 A3021 RMK A01 T00610015  RH  072%=      5-min Rain = 0
KBY1 171209Z 36006KT 06/02 A3021 RMK A01 T00620015  RH  072%=      5-min Rain = 0
KBY1 171210Z 01006KT 06/02 A3022 RMK A01 T00620015  RH  072%=      5-min Rain = 0
KBY1 171211Z 00005KT 06/01 A3022 RMK A01 T00600013  RH  072%=      5-min Rain = 0
KBY1 171212Z 36005KT 06/01 A3021 RMK A01 T00580013  RH  072%=      5-min Rain = 0
KBY1 171213Z 00006KT 06/01 A3022 RMK A01 T00570013  RH  073%=      5-min Rain = 0
KBY1 171214Z 01007KT 06/01 A3021 RMK A01 T00570013  RH  074%=      5-min Rain = 0
KBY1 171215Z 01006KT 06/01 A3021 RMK A01 T00570014  RH  074%=      5-min Rain = 0
KBY1 171216Z 02006KT 06/02 A3022 RMK A01 T00570015  RH  074%=      5-min Rain = 0
KBY1 171217Z 00005KT 06/01 A3022 RMK A01 T00570014  RH  074%=      5-min Rain = 0
KBY1 171218Z 01007KT 06/01 A3021 RMK A01 T00570014  RH  074%=      5-min Rain = 0
KBY1 171219Z 36006KT 06/02 A3022 RMK A01 T00580015  RH  074%=      5-min Rain = 0
KBY1 171220Z 35007KT 06/01 A3022 RMK A01 T00570014  RH  074%=      5-min Rain = 0
KBY1 171221Z 00007KT 06/02 A3022 RMK A01 T00570015  RH  074%=      5-min Rain = 0
KBY1 171222Z 01006KT 06/02 A3022 RMK A01 T00580016  RH  074%=      5-min Rain = 0
KBY1 171223Z 36005KT 06/02 A3022 RMK A01 T00580015  RH  074%=      5-min Rain = 0
KBY1 171224Z 02005KT 06/02 A3022 RMK A01 T00570015  RH  074%=      5-min Rain = 0
KBY1 171225Z 01005KT 06/02 A3022 RMK A01 T00570015  RH  074%=      5-min Rain = 0
KBY1 171226Z 01005KT 06/01 A3022 RMK A01 T00560014  RH  074%=      5-min Rain = 0
KBY1 171227Z 01008KT 06/01 A3022 RMK A01 T00560014  RH  075%=      5-min Rain = 0
KBY1 171228Z 00008KT 06/02 A3022 RMK A01 T00560016  RH  075%=      5-min Rain = 0
KBY1 171229Z 00006KT 06/02 A3022 RMK A01 T00570016  RH  075%=      5-min Rain = 0
KBY1 171230Z 36006KT 06/02 A3022 RMK A01 T00580016  RH  074%=      5-min Rain = 0
KBY1 171231Z 00004KT 06/02 A3022 RMK A01 T00570016  RH  074%=      5-min Rain = 0
KBY1 171232Z 00006KT 06/02 A3022 RMK A01 T00570015  RH  075%=      5-min Rain = 0
KBY1 171233Z 35004KT 06/02 A3022 RMK A01 T00560015  RH  075%=      5-min Rain = 0
KBY1 171234Z 01007KT 06/02 A3022 RMK A01 T00550015  RH  075%=      5-min Rain = 0
KBY1 171235Z 00005KT 06/02 A3022 RMK A01 T00550016  RH  076%=      5-min Rain = 0
KBY1 171236Z 36005KT 06/02 A3022 RMK A01 T00560016  RH  076%=      5-min Rain = 0
KBY1 171237Z 35005KT 06/02 A3022 RMK A01 T00560016  RH  075%=      5-min Rain = 0
KBY1 171238Z 36004KT 06/02 A3023 RMK A01 T00560016  RH  075%=      5-min Rain = 0
KBY1 171239Z 36005KT 06/02 A3023 RMK A01 T00550015  RH  075%=      5-min Rain = 0
KBY1 171240Z 00006KT 06/02 A3023 RMK A01 T00550015  RH  076%=      5-min Rain = 0
KBY1 171241Z 00006KT 05/02 A3023 RMK A01 T00540015  RH  076%=      5-min Rain = 0
KBY1 171242Z 36005KT 06/02 A3023 RMK A01 T00550016  RH  076%=      5-min Rain = 0
KBY1 171243Z 00007KT 06/02 A3023 RMK A01 T00550016  RH  076%=      5-min Rain = 0
KBY1 171244Z 36007KT 06/02 A3023 RMK A01 T00550016  RH  076%=      5-min Rain = 0
KBY1 171245Z 00005KT 06/02 A3023 RMK A01 T00550016  RH  076%=      5-min Rain = 0
KBY1 171246Z 36004KT 06/02 A3023 RMK A01 T00550016  RH  076%=      5-min Rain = 0
KBY1 171247Z 36005KT 06/02 A3023 RMK A01 T00550016  RH  076%=      5-min Rain = 0
KBY1 171248Z 35004KT 05/02 A3023 RMK A01 T00540016  RH  076%=      5-min Rain = 0
KBY1 171249Z 35004KT 05/02 A3023 RMK A01 T00530016  RH  077%=      5-min Rain = 0
KBY1 171250Z 34004KT 05/02 A3023 RMK A01 T00530016  RH  077%=      5-min Rain = 0
KBY1 171251Z 35006KT 05/02 A3023 RMK A01 T00520016  RH  077%=      5-min Rain = 0
KBY1 171252Z 36005KT 05/02 A3023 RMK A01 T00520016  RH  077%=      5-min Rain = 0
KBY1 171253Z 00005KT 05/02 A3023 RMK A01 T00520016  RH  077%=      5-min Rain = 0
KBY1 171254Z 35005KT 05/02 A3023 RMK A01 T00510015  RH  077%=      5-min Rain = 0
KBY1 171255Z 35005KT 05/02 A3023 RMK A01 T00510016  RH  078%=      5-min Rain = 0
KBY1 171256Z 36004KT 05/02 A3023 RMK A01 T00510015  RH  078%=      5-min Rain = 0
KBY1 171257Z 36004KT 05/02 A3023 RMK A01 T00500015  RH  078%=      5-min Rain = 0
KBY1 171258Z 36004KT 05/01 A3023 RMK A01 T00490014  RH  078%=      5-min Rain = 0
KBY1 171259Z 36005KT 05/02 A3023 RMK A01 T00490015  RH  078%=      5-min Rain = 0
KBY1 171300Z 35006KT 05/02 A3023 RMK A01 T00500015  RH  079%=      5-min Rain = 0
KBY1 171301Z 35005KT 05/02 A3023 RMK A01 T00490015  RH  079%=      5-min Rain = 0
KBY1 171302Z 35005KT 05/02 A3023 RMK A01 T00490015  RH  079%=      5-min Rain = 0
KBY1 171303Z 35004KT 05/02 A3023 RMK A01 T00490015  RH  079%=      5-min Rain = 0
KBY1 171304Z 36004KT 05/02 A3023 RMK A01 T00480015  RH  079%=      5-min Rain = 0
KBY1 171305Z 35004KT 05/02 A3023 RMK A01 T00480015  RH  079%=      5-min Rain = 0
KBY1 171306Z 35005KT 05/02 A3023 RMK A01 T00480015  RH  079%=      5-min Rain = 0
KBY1 171307Z 34004KT 05/02 A3023 RMK A01 T00480015  RH  079%=      5-min Rain = 0
KBY1 171308Z 35003KT 05/02 A3023 RMK A01 T00480015  RH  079%=      5-min Rain = 0
KBY1 171309Z 35003KT 05/02 A3023 RMK A01 T00480015  RH  079%=      5-min Rain = 0
KBY1 171310Z 35003KT 05/01 A3023 RMK A01 T00470014  RH  079%=      5-min Rain = 0
KBY1 171311Z 34003KT 05/02 A3023 RMK A01 T00470015  RH  079%=      5-min Rain = 0
KBY1 171312Z 34003KT 05/01 A3023 RMK A01 T00470014  RH  079%=      5-min Rain = 0
KBY1 171313Z 34004KT 05/01 A3023 RMK A01 T00460014  RH  079%=      5-min Rain = 0
KBY1 171314Z 34004KT 05/01 A3023 RMK A01 T00460014  RH  080%=      5-min Rain = 0
KBY1 171315Z 34003KT 05/01 A3023 RMK A01 T00450013  RH  080%=      5-min Rain = 0
KBY1 171316Z 34003KT 05/01 A3023 RMK A01 T00450014  RH  080%=      5-min Rain = 0
KBY1 171317Z 34003KT 05/01 A3023 RMK A01 T00450014  RH  080%=      5-min Rain = 0
KBY1 171318Z 34003KT 05/01 A3023 RMK A01 T00450014  RH  080%=      5-min Rain = 0
KBY1 171319Z 32003KT 05/01 A3023 RMK A01 T00450014  RH  081%=      5-min Rain = 0
KBY1 171320Z 33002KT 05/01 A3023 RMK A01 T00450014  RH  080%=      5-min Rain = 0
KBY1 171321Z 31001KT 05/01 A3023 RMK A01 T00450014  RH  080%=      5-min Rain = 0
KBY1 171322Z 30001KT 05/01 A3023 RMK A01 T00450014  RH  080%=      5-min Rain = 0
KBY1 171323Z 30002KT 05/01 A3023 RMK A01 T00450014  RH  080%=      5-min Rain = 0
KBY1 171324Z 29001KT 05/01 A3024 RMK A01 T00450014  RH  080%=      5-min Rain = 0
KBY1 171325Z 31001KT 05/01 A3024 RMK A01 T00450013  RH  080%=      5-min Rain = 0
KBY1 171326Z 32002KT 04/01 A3024 RMK A01 T00440013  RH  080%=      5-min Rain = 0
KBY1 171327Z 31001KT 04/01 A3024 RMK A01 T00440013  RH  081%=      5-min Rain = 0
KBY1 171328Z 28001KT 04/01 A3024 RMK A01 T00440013  RH  081%=      5-min Rain = 0
KBY1 171329Z 28001KT 04/01 A3024 RMK A01 T00430013  RH  081%=      5-min Rain = 0
KBY1 171330Z 28002KT 04/01 A3024 RMK A01 T00420012  RH  081%=      5-min Rain = 0
KBY1 171331Z 28002KT 04/01 A3024 RMK A01 T00420013  RH  081%=      5-min Rain = 0
KBY1 171332Z 27002KT 04/01 A3024 RMK A01 T00410011  RH  081%=      5-min Rain = 0
KBY1 171333Z 28002KT 04/01 A3024 RMK A01 T00400009  RH  080%=      5-min Rain = 0
KBY1 171334Z 28002KT 04/01 A3024 RMK A01 T00390009  RH  081%=      5-min Rain = 0
KBY1 171335Z 29002KT 04/01 A3024 RMK A01 T00390010  RH  082%=      5-min Rain = 0
KBY1 171336Z 28002KT 04/01 A3024 RMK A01 T00380009  RH  082%=      5-min Rain = 0
KBY1 171337Z 29002KT 04/01 A3024 RMK A01 T00380011  RH  083%=      5-min Rain = 0
KBY1 171338Z 29003KT 04/01 A3024 RMK A01 T00380011  RH  082%=      5-min Rain = 0
KBY1 171339Z 29003KT 04/01 A3024 RMK A01 T00380011  RH  083%=      5-min Rain = 0
KBY1 171340Z 29003KT 04/01 A3024 RMK A01 T00390012  RH  083%=      5-min Rain = 0
KBY1 171341Z 31003KT 04/01 A3024 RMK A01 T00400013  RH  083%=      5-min Rain = 0
KBY1 171342Z 32003KT 04/01 A3024 RMK A01 T00390010  RH  081%=      5-min Rain = 0
KBY1 171343Z 32003KT 04/01 A3024 RMK A01 T00390011  RH  082%=      5-min Rain = 0
KBY1 171344Z 33004KT 04/01 A3024 RMK A01 T00390011  RH  082%=      5-min Rain = 0
KBY1 171345Z 33004KT 04/01 A3024 RMK A01 T00390010  RH  082%=      5-min Rain = 0
KBY1 171346Z 34004KT 04/01 A3024 RMK A01 T00380010  RH  082%=      5-min Rain = 0
KBY1 171347Z 33004KT 04/01 A3024 RMK A01 T00380010  RH  082%=      5-min Rain = 0
KBY1 171348Z 33004KT 04/01 A3024 RMK A01 T00380010  RH  082%=      5-min Rain = 0
KBY1 171349Z 34005KT 04/01 A3024 RMK A01 T00380011  RH  082%=      5-min Rain = 0
KBY1 171350Z 34004KT 04/01 A3024 RMK A01 T00400013  RH  083%=      5-min Rain = 0
KBY1 171351Z 34004KT 04/01 A3024 RMK A01 T00410014  RH  082%=      5-min Rain = 0
KBY1 171352Z 33004KT 04/01 A3024 RMK A01 T00420013  RH  082%=      5-min Rain = 0
KBY1 171353Z 34004KT 04/01 A3024 RMK A01 T00420013  RH  081%=      5-min Rain = 0
KBY1 171354Z 34004KT 04/01 A3024 RMK A01 T00430013  RH  081%=      5-min Rain = 0
KBY1 171355Z 34004KT 04/01 A3024 RMK A01 T00440014  RH  081%=      5-min Rain = 0
KBY1 171356Z 33004KT 04/01 A3024 RMK A01 T00440014  RH  081%=      5-min Rain = 0
KBY1 171357Z 34004KT 05/01 A3024 RMK A01 T00450014  RH  080%=      5-min Rain = 0
KBY1 171358Z 34004KT 05/02 A3024 RMK A01 T00460015  RH  080%=      5-min Rain = 0
KBY1 171359Z 34005KT 05/02 A3024 RMK A01 T00470016  RH  080%=      5-min Rain = 0
KBY1 171400Z 34005KT 05/02 A3024 RMK A01 T00480016  RH  080%=      5-min Rain = 0
KBY1 171401Z 35004KT 05/02 A3024 RMK A01 T00490016  RH  079%=      5-min Rain = 0
KBY1 171402Z 35005KT 05/02 A3024 RMK A01 T00500017  RH  079%=      5-min Rain = 0
KBY1 171403Z 36005KT 05/02 A3024 RMK A01 T00510018  RH  079%=      5-min Rain = 0
KBY1 171404Z 35003KT 05/02 A3024 RMK A01 T00530018  RH  079%=      5-min Rain = 0
KBY1 171405Z 35003KT 05/02 A3024 RMK A01 T00540018  RH  078%=      5-min Rain = 0
KBY1 171406Z 35003KT 06/02 A3024 RMK A01 T00550019  RH  078%=      5-min Rain = 0
KBY1 171407Z 35005KT 06/02 A3024 RMK A01 T00550018  RH  077%=      5-min Rain = 0
KBY1 171408Z 35004KT 06/02 A3024 RMK A01 T00550018  RH  077%=      5-min Rain = 0
KBY1 171409Z 35004KT 06/02 A3024 RMK A01 T00560018  RH  077%=      5-min Rain = 0
KBY1 171410Z 36004KT 06/02 A3024 RMK A01 T00560018  RH  077%=      5-min Rain = 0
KBY1 171411Z 36003KT 06/02 A3024 RMK A01 T00570018  RH  076%=      5-min Rain = 0
KBY1 171412Z 36003KT 06/02 A3024 RMK A01 T00580018  RH  076%=      5-min Rain = 0
KBY1 171413Z 01002KT 06/02 A3024 RMK A01 T00580019  RH  076%=      5-min Rain = 0
KBY1 171414Z 35001KT 06/02 A3024 RMK A01 T00590019  RH  075%=      5-min Rain = 0
KBY1 171415Z 04000KT 06/02 A3025 RMK A01 T00610020  RH  075%=      5-min Rain = 0
KBY1 171416Z 30001KT 06/02 A3025 RMK A01 T00620020  RH  074%=      5-min Rain = 0
KBY1 171417Z 32001KT 06/02 A3025 RMK A01 T00630019  RH  074%=      5-min Rain = 0
KBY1 171418Z 31001KT 06/02 A3025 RMK A01 T00630018  RH  073%=      5-min Rain = 0
KBY1 171419Z 29000KT 06/02 A3025 RMK A01 T00630019  RH  073%=      5-min Rain = 0
KBY1 171420Z 24002KT 06/02 A3025 RMK A01 T00630018  RH  073%=      5-min Rain = 0
KBY1 171421Z 22001KT 06/02 A3025 RMK A01 T00630019  RH  073%=      5-min Rain = 0
KBY1 171422Z 23001KT 06/02 A3025 RMK A01 T00640019  RH  073%=      5-min Rain = 0
KBY1 171423Z 20002KT 06/02 A3025 RMK A01 T00640019  RH  073%=      5-min Rain = 0
KBY1 171424Z 21003KT 06/02 A3025 RMK A01 T00630017  RH  072%=      5-min Rain = 0
KBY1 171425Z 22003KT 06/02 A3025 RMK A01 T00610016  RH  073%=      5-min Rain = 0
KBY1 171426Z 22004KT 06/02 A3025 RMK A01 T00590017  RH  074%=      5-min Rain = 0
KBY1 171427Z 22004KT 06/02 A3025 RMK A01 T00590018  RH  075%=      5-min Rain = 0
KBY1 171428Z 23004KT 06/02 A3025 RMK A01 T00590018  RH  075%=      5-min Rain = 0
KBY1 171429Z 23003KT 06/02 A3025 RMK A01 T00590019  RH  075%=      5-min Rain = 0
KBY1 171430Z 22004KT 06/02 A3025 RMK A01 T00590019  RH  075%=      5-min Rain = 0
KBY1 171431Z 22004KT 06/02 A3025 RMK A01 T00600020  RH  075%=      5-min Rain = 0
KBY1 171432Z 25004KT 06/02 A3025 RMK A01 T00610019  RH  075%=      5-min Rain = 0
KBY1 171433Z 25003KT 06/02 A3025 RMK A01 T00620019  RH  074%=      5-min Rain = 0
KBY1 171434Z 24003KT 06/02 A3025 RMK A01 T00620019  RH  074%=      5-min Rain = 0
KBY1 171435Z 25003KT 06/02 A3025 RMK A01 T00630019  RH  074%=      5-min Rain = 0
KBY1 171436Z 25003KT 06/02 A3025 RMK A01 T00630020  RH  074%=      5-min Rain = 0
KBY1 171437Z 30004KT 07/02 A3025 RMK A01 T00650020  RH  073%=      5-min Rain = 0
KBY1 171438Z 30004KT 07/02 A3025 RMK A01 T00650018  RH  072%=      5-min Rain = 0
KBY1 171439Z 30002KT 07/02 A3025 RMK A01 T00650018  RH  072%=      5-min Rain = 0
KBY1 171440Z 30003KT 07/02 A3025 RMK A01 T00650019  RH  072%=      5-min Rain = 0
KBY1 171441Z 30003KT 07/02 A3025 RMK A01 T00650019  RH  072%=      5-min Rain = 0
KBY1 171442Z 33004KT 07/02 A3025 RMK A01 T00660019  RH  072%=      5-min Rain = 0
KBY1 171443Z 33004KT 07/02 A3025 RMK A01 T00660019  RH  072%=      5-min Rain = 0
KBY1 171444Z 33004KT 07/02 A3025 RMK A01 T00670019  RH  071%=      5-min Rain = 0
KBY1 171445Z 33005KT 07/02 A3025 RMK A01 T00680019  RH  071%=      5-min Rain = 0
KBY1 171446Z 34004KT 07/02 A3025 RMK A01 T00690019  RH  070%=      5-min Rain = 0
KBY1 171447Z 33004KT 07/02 A3025 RMK A01 T00700019  RH  070%=      5-min Rain = 0
KBY1 171448Z 33006KT 07/02 A3025 RMK A01 T00710020  RH  070%=      5-min Rain = 0
KBY1 171449Z 34005KT 07/02 A3025 RMK A01 T00710019  RH  069%=      5-min Rain = 0
KBY1 171450Z 34005KT 07/02 A3025 RMK A01 T00710018  RH  069%=      5-min Rain = 0
KBY1 171451Z 35006KT 07/02 A3025 RMK A01 T00710018  RH  069%=      5-min Rain = 0
KBY1 171452Z 34006KT 07/02 A3025 RMK A01 T00710019  RH  069%=      5-min Rain = 0
KBY1 171453Z 34004KT 07/02 A3025 RMK A01 T00720019  RH  069%=      5-min Rain = 0
KBY1 171454Z 35006KT 07/02 A3025 RMK A01 T00730019  RH  069%=      5-min Rain = 0
KBY1 171455Z 00006KT 07/02 A3025 RMK A01 T00730019  RH  069%=      5-min Rain = 0
KBY1 171456Z 35006KT 07/02 A3025 RMK A01 T00730019  RH  068%=      5-min Rain = 0
KBY1 171457Z 33004KT 07/02 A3025 RMK A01 T00730019  RH  068%=      5-min Rain = 0
KBY1 171458Z 33006KT 07/02 A3025 RMK A01 T00740020  RH  068%=      5-min Rain = 0
KBY1 171459Z 33006KT 08/02 A3025 RMK A01 T00750019  RH  068%=      5-min Rain = 0
KBY1 171500Z 33005KT 08/02 A3025 RMK A01 T00750019  RH  068%=      5-min Rain = 0
KBY1 171501Z 36006KT 08/02 A3025 RMK A01 T00750019  RH  068%=      5-min Rain = 0
KBY1 171502Z 01007KT 08/02 A3025 RMK A01 T00750019  RH  068%=      5-min Rain = 0
KBY1 171503Z 35006KT 07/02 A3025 RMK A01 T00740018  RH  068%=      5-min Rain = 0
KBY1 171504Z 35006KT 07/02 A3025 RMK A01 T00730018  RH  068%=      5-min Rain = 0
KBY1 171505Z 34007KT 07/02 A3025 RMK A01 T00740019  RH  068%=      5-min Rain = 0
KBY1 171506Z 35007KT 08/02 A3025 RMK A01 T00750018  RH  067%=      5-min Rain = 0
KBY1 171507Z 34006KT 08/02 A3025 RMK A01 T00760019  RH  067%=      5-min Rain = 0
KBY1 171508Z 34008KT 08/02 A3025 RMK A01 T00770019  RH  067%=      5-min Rain = 0
KBY1 171509Z 35007KT 08/02 A3025 RMK A01 T00780019  RH  066%=      5-min Rain = 0
KBY1 171510Z 02006KT 08/02 A3025 RMK A01 T00780018  RH  066%=      5-min Rain = 0
KBY1 171511Z 01007KT 08/02 A3025 RMK A01 T00780018  RH  066%=      5-min Rain = 0
KBY1 171512Z 36005KT 08/02 A3025 RMK A01 T00780018  RH  066%=      5-min Rain = 0
KBY1 171513Z 34006KT 08/02 A3025 RMK A01 T00790019  RH  066%=      5-min Rain = 0
KBY1 171514Z 34008KT 08/02 A3025 RMK A01 T00810020  RH  065%=      5-min Rain = 0
KBY1 171515Z 34008KT 08/02 A3025 RMK A01 T00800017  RH  064%=      5-min Rain = 0
KBY1 171516Z 34005KT 08/02 A3025 RMK A01 T00780016  RH  065%=      5-min Rain = 0
KBY1 171517Z 33005KT 08/02 A3025 RMK A01 T00770017  RH  066%=      5-min Rain = 0
KBY1 171518Z 34006KT 08/02 A3025 RMK A01 T00770017  RH  066%=      5-min Rain = 0
KBY1 171519Z 00006KT 08/02 A3025 RMK A01 T00790019  RH  065%=      5-min Rain = 0
KBY1 171520Z 36007KT 08/02 A3025 RMK A01 T00810019  RH  065%=      5-min Rain = 0
KBY1 171521Z 01008KT 08/02 A3025 RMK A01 T00820018  RH  064%=      5-min Rain = 0
KBY1 171522Z 03006KT 08/02 A3025 RMK A01 T00820018  RH  064%=      5-min Rain = 0
KBY1 171523Z 36005KT 08/02 A3025 RMK A01 T00820018  RH  064%=      5-min Rain = 0
KBY1 171524Z 34007KT 08/02 A3025 RMK A01 T00840018  RH  063%=      5-min Rain = 0
KBY1 171525Z 35008KT 09/02 A3025 RMK A01 T00850018  RH  063%=      5-min Rain = 0
KBY1 171526Z 01008KT 09/02 A3025 RMK A01 T00860017  RH  062%=      5-min Rain = 0
KBY1 171527Z 02007KT 09/02 A3025 RMK A01 T00850016  RH  062%=      5-min Rain = 0
KBY1 171528Z 02006KT 08/02 A3025 RMK A01 T00840016  RH  062%=      5-min Rain = 0
KBY1 171529Z 01007KT 09/02 A3025 RMK A01 T00850018  RH  063%=      5-min Rain = 0
KBY1 171530Z 03007KT 09/02 A3025 RMK A01 T00860017  RH  062%=      5-min Rain = 0
KBY1 171531Z 03007KT 09/02 A3025 RMK A01 T00860017  RH  062%=      5-min Rain = 0
KBY1 171532Z 02006KT 09/02 A3025 RMK A01 T00860017  RH  062%=      5-min Rain = 0
KBY1 171533Z 02005KT 09/02 A3025 RMK A01 T00860017  RH  062%=      5-min Rain = 0
KBY1 171534Z 02006KT 09/02 A3025 RMK A01 T00860017  RH  062%=      5-min Rain = 0
KBY1 171535Z 36006KT 09/02 A3025 RMK A01 T00860017  RH  062%=      5-min Rain = 0
KBY1 171536Z 36006KT 09/02 A3025 RMK A01 T00860016  RH  062%=      5-min Rain = 0
KBY1 171537Z 36003KT 09/02 A3025 RMK A01 T00860017  RH  062%=      5-min Rain = 0
KBY1 171538Z 01007KT 09/02 A3025 RMK A01 T00860017  RH  062%=      5-min Rain = 0
KBY1 171539Z 01009KT 09/02 A3025 RMK A01 T00870017  RH  062%=      5-min Rain = 0
KBY1 171540Z 01009KT 09/02 A3025 RMK A01 T00870016  RH  061%=      5-min Rain = 0
KBY1 171541Z 01007KT 09/02 A3025 RMK A01 T00870016  RH  061%=      5-min Rain = 0
KBY1 171542Z 01005KT 09/02 A3025 RMK A01 T00860015  RH  061%=      5-min Rain = 0
KBY1 171543Z 00006KT 09/02 A3024 RMK A01 T00870016  RH  061%=      5-min Rain = 0
KBY1 171544Z 36005KT 09/02 A3024 RMK A01 T00880016  RH  061%=      5-min Rain = 0
KBY1 171545Z 36008KT 09/02 A3024 RMK A01 T00900018  RH  060%=      5-min Rain = 0
KBY1 171546Z 00007KT 09/02 A3025 RMK A01 T00920018  RH  060%=      5-min Rain = 0
KBY1 171547Z 00006KT 09/02 A3025 RMK A01 T00930017  RH  059%=      5-min Rain = 0
KBY1 171548Z 02006KT 09/02 A3024 RMK A01 T00940017  RH  059%=      5-min Rain = 0
KBY1 171549Z 02007KT 10/02 A3024 RMK A01 T00950017  RH  058%=      5-min Rain = 0
KBY1 171550Z 01007KT 10/02 A3024 RMK A01 T00950017  RH  058%=      5-min Rain = 0
KBY1 171551Z 03008KT 10/02 A3024 RMK A01 T00950016  RH  058%=      5-min Rain = 0
KBY1 171552Z 01008KT 09/02 A3024 RMK A01 T00940015  RH  058%=      5-min Rain = 0
KBY1 171553Z 01006KT 09/02 A3024 RMK A01 T00930015  RH  058%=      5-min Rain = 0
KBY1 171554Z 02006KT 09/02 A3024 RMK A01 T00940015  RH  058%=      5-min Rain = 0
KBY1 171555Z 02007KT 09/02 A3024 RMK A01 T00940015  RH  058%=      5-min Rain = 0
KBY1 171556Z 04007KT 10/02 A3024 RMK A01 T00950016  RH  058%=      5-min Rain = 0
KBY1 171557Z 02007KT 10/02 A3024 RMK A01 T00970018  RH  058%=      5-min Rain = 0
KBY1 171558Z 02007KT 10/02 A3024 RMK A01 T00990018  RH  057%=      5-min Rain = 0
KBY1 171559Z 02005KT 10/02 A3024 RMK A01 T00990016  RH  056%=      5-min Rain = 0
KBY1 171600Z 02006KT 10/02 A3024 RMK A01 T00990017  RH  057%=      5-min Rain = 0
KBY1 171601Z 03008KT 10/02 A3024 RMK A01 T01000017  RH  056%=      5-min Rain = 0
KBY1 171602Z 03006KT 10/02 A3024 RMK A01 T01010016  RH  056%=      5-min Rain = 0
KBY1 171603Z 03005KT 10/02 A3024 RMK A01 T01000016  RH  056%=      5-min Rain = 0
KBY1 171604Z 05006KT 10/02 A3023 RMK A01 T01020017  RH  056%=      5-min Rain = 0
KBY1 171605Z 05006KT 10/02 A3024 RMK A01 T01030018  RH  056%=      5-min Rain = 0
KBY1 171606Z 06004KT 10/02 A3024 RMK A01 T01030017  RH  055%=      5-min Rain = 0
KBY1 171607Z 04004KT 10/02 A3024 RMK A01 T01030018  RH  056%=      5-min Rain = 0
KBY1 171608Z 02005KT 11/02 A3024 RMK A01 T01060018  RH  055%=      5-min Rain = 0
KBY1 171609Z 36006KT 11/02 A3024 RMK A01 T01070018  RH  054%=      5-min Rain = 0
KBY1 171610Z 00005KT 11/02 A3024 RMK A01 T01050015  RH  054%=      5-min Rain = 0
KBY1 171611Z 36005KT 10/02 A3023 RMK A01 T01020015  RH  055%=      5-min Rain = 0
KBY1 171612Z 34004KT 10/02 A3023 RMK A01 T01010016  RH  056%=      5-min Rain = 0
KBY1 171613Z 34004KT 10/02 A3023 RMK A01 T01000016  RH  056%=      5-min Rain = 0
KBY1 171614Z 36005KT 10/02 A3023 RMK A01 T00990016  RH  056%=      5-min Rain = 0
KBY1 171615Z 02007KT 10/02 A3023 RMK A01 T00990016  RH  056%=      5-min Rain = 0
KBY1 171616Z 01005KT 10/02 A3023 RMK A01 T00990016  RH  056%=      5-min Rain = 0
KBY1 171617Z 03007KT 10/02 A3023 RMK A01 T01000015  RH  056%=      5-min Rain = 0
KBY1 171618Z 03007KT 10/02 A3023 RMK A01 T01010015  RH  055%=      5-min Rain = 0
KBY1 171619Z 03006KT 10/01 A3023 RMK A01 T01010014  RH  055%=      5-min Rain = 0
KBY1 171620Z 02005KT 10/01 A3023 RMK A01 T01010014  RH  055%=      5-min Rain = 0
KBY1 171621Z 04005KT 10/02 A3023 RMK A01 T01030015  RH  054%=      5-min Rain = 0
KBY1 171622Z 02007KT 10/02 A3023 RMK A01 T01040015  RH  054%=      5-min Rain = 0
KBY1 171623Z 36007KT 10/01 A3023 RMK A01 T01030014  RH  054%=      5-min Rain = 0
KBY1 171624Z 36007KT 10/02 A3023 RMK A01 T01030015  RH  054%=      5-min Rain = 0
KBY1 171625Z 03006KT 10/02 A3023 RMK A01 T01040015  RH  054%=      5-min Rain = 0
KBY1 171626Z 04005KT 10/01 A3023 RMK A01 T01040013  RH  053%=      5-min Rain = 0
KBY1 171627Z 02007KT 10/01 A3023 RMK A01 T01030013  RH  054%=      5-min Rain = 0
KBY1 171628Z 02007KT 10/01 A3023 RMK A01 T01030013  RH  053%=      5-min Rain = 0
KBY1 171629Z 04006KT 10/01 A3023 RMK A01 T01030013  RH  054%=      5-min Rain = 0
KBY1 171630Z 04004KT 10/01 A3023 RMK A01 T01030014  RH  054%=      5-min Rain = 0
KBY1 171631Z 00007KT 10/01 A3023 RMK A01 T01040014  RH  054%=      5-min Rain = 0
KBY1 171632Z 36006KT 10/01 A3023 RMK A01 T01040013  RH  053%=      5-min Rain = 0
KBY1 171633Z 01008KT 10/01 A3023 RMK A01 T01040012  RH  053%=      5-min Rain = 0
KBY1 171634Z 03006KT 11/01 A3023 RMK A01 T01050013  RH  053%=      5-min Rain = 0
KBY1 171635Z 04006KT 11/01 A3023 RMK A01 T01070014  RH  052%=      5-min Rain = 0
KBY1 171636Z 04006KT 11/01 A3023 RMK A01 T01080013  RH  052%=      5-min Rain = 0
KBY1 171637Z 03007KT 11/01 A3023 RMK A01 T01080014  RH  052%=      5-min Rain = 0
KBY1 171638Z 03005KT 11/02 A3022 RMK A01 T01080015  RH  053%=      5-min Rain = 0
KBY1 171639Z 03005KT 11/01 A3022 RMK A01 T01100014  RH  052%=      5-min Rain = 0
KBY1 171640Z 03008KT 11/02 A3022 RMK A01 T01090015  RH  052%=      5-min Rain = 0
KBY1 171641Z 03009KT 11/01 A3023 RMK A01 T01100013  RH  051%=      5-min Rain = 0
KBY1 171642Z 02007KT 11/01 A3023 RMK A01 T01100011  RH  050%=      5-min Rain = 0
KBY1 171643Z 02004KT 11/01 A3023 RMK A01 T01080011  RH  051%=      5-min Rain = 0
KBY1 171644Z 03005KT 11/01 A3023 RMK A01 T01070012  RH  052%=      5-min Rain = 0
KBY1 171645Z 02004KT 11/01 A3023 RMK A01 T01080013  RH  052%=      5-min Rain = 0
KBY1 171646Z 00005KT 11/01 A3023 RMK A01 T01100014  RH  052%=      5-min Rain = 0
KBY1 171647Z 02008KT 11/02 A3023 RMK A01 T01120015  RH  051%=      5-min Rain = 0
KBY1 171648Z 36007KT 11/01 A3023 RMK A01 T01120013  RH  051%=      5-min Rain = 0
KBY1 171649Z 02006KT 11/01 A3023 RMK A01 T01100013  RH  051%=      5-min Rain = 0
KBY1 171650Z 06004KT 11/01 A3023 RMK A01 T01090012  RH  051%=      5-min Rain = 0
KBY1 171651Z 05003KT 11/01 A3023 RMK A01 T01090012  RH  051%=      5-min Rain = 0
KBY1 171652Z 35001KT 11/01 A3023 RMK A01 T01090012  RH  051%=      5-min Rain = 0
KBY1 171653Z 02004KT 11/01 A3023 RMK A01 T01090011  RH  051%=      5-min Rain = 0
KBY1 171654Z 03008KT 11/01 A3023 RMK A01 T01090012  RH  051%=      5-min Rain = 0
KBY1 171655Z 05006KT 11/01 A3023 RMK A01 T01100012  RH  051%=      5-min Rain = 0
KBY1 171656Z 05006KT 11/01 A3023 RMK A01 T01100011  RH  051%=      5-min Rain = 0
KBY1 171657Z 02004KT 11/01 A3023 RMK A01 T01100011  RH  050%=      5-min Rain = 0
KBY1 171658Z 35005KT 11/01 A3023 RMK A01 T01080012  RH  051%=      5-min Rain = 0
KBY1 171659Z 36002KT 11/01 A3023 RMK A01 T01080012  RH  052%=      5-min Rain = 0
KBY1 171700Z 00004KT 11/01 A3023 RMK A01 T01070012  RH  052%=      5-min Rain = 0
KBY1 171701Z 02004KT 11/01 A3023 RMK A01 T01080012  RH  052%=      5-min Rain = 0
KBY1 171702Z 02008KT 11/01 A3023 RMK A01 T01110013  RH  051%=      5-min Rain = 0
KBY1 171703Z 03006KT 11/01 A3023 RMK A01 T01110012  RH  050%=      5-min Rain = 0
KBY1 171704Z 02005KT 11/01 A3023 RMK A01 T01130013  RH  050%=      5-min Rain = 0
KBY1 171705Z 35004KT 11/01 A3023 RMK A01 T01140012  RH  049%=      5-min Rain = 0
KBY1 171706Z 02007KT 11/01 A3023 RMK A01 T01120011  RH  050%=      5-min Rain = 0
KBY1 171707Z 02006KT 11/01 A3023 RMK A01 T01120012  RH  050%=      5-min Rain = 0
KBY1 171708Z 00006KT 11/01 A3023 RMK A01 T01140013  RH  050%=      5-min Rain = 0
KBY1 171709Z 36007KT 11/01 A3023 RMK A01 T01140011  RH  049%=      5-min Rain = 0
KBY1 171710Z 01005KT 11/01 A3023 RMK A01 T01120009  RH  049%=      5-min Rain = 0
KBY1 171711Z 02005KT 11/01 A3023 RMK A01 T01120009  RH  049%=      5-min Rain = 0
KBY1 171712Z 36005KT 11/01 A3023 RMK A01 T01120010  RH  049%=      5-min Rain = 0
KBY1 171713Z 04005KT 12/01 A3023 RMK A01 T01160014  RH  050%=      5-min Rain = 0
KBY1 171714Z 03008KT 12/01 A3023 RMK A01 T01170012  RH  048%=      5-min Rain = 0
KBY1 171715Z 04009KT 12/01 A3023 RMK A01 T01170013  RH  049%=      5-min Rain = 0
KBY1 171716Z 04008KT 12/01 A3023 RMK A01 T01160012  RH  049%=      5-min Rain = 0
KBY1 171717Z 04006KT 12/01 A3023 RMK A01 T01150011  RH  049%=      5-min Rain = 0
KBY1 171718Z 04007KT 12/01 A3023 RMK A01 T01150011  RH  049%=      5-min Rain = 0
KBY1 171719Z 06004KT 12/01 A3023 RMK A01 T01150011  RH  049%=      5-min Rain = 0
KBY1 171720Z 04007KT 12/01 A3023 RMK A01 T01170013  RH  049%=      5-min Rain = 0
KBY1 171721Z 01007KT 12/01 A3023 RMK A01 T01190014  RH  049%=      5-min Rain = 0
KBY1 171722Z 35007KT 12/01 A3023 RMK A01 T01190013  RH  048%=      5-min Rain = 0
KBY1 171723Z 36007KT 12/02 A3024 RMK A01 T01220015  RH  048%=      5-min Rain = 0
KBY1 171724Z 01009KT 12/01 A3024 RMK A01 T01220012  RH  047%=      5-min Rain = 0
KBY1 171725Z 36005KT 12/01 A3024 RMK A01 T01200014  RH  048%=      5-min Rain = 0
KBY1 171726Z 36006KT 12/02 A3024 RMK A01 T01230016  RH  048%=      5-min Rain = 0
KBY1 171727Z 03007KT 13/02 A3024 RMK A01 T01250015  RH  047%=      5-min Rain = 0
KBY1 171728Z 04009KT 12/01 A3024 RMK A01 T01220012  RH  047%=      5-min Rain = 0
KBY1 171729Z 02006KT 12/01 A3024 RMK A01 T01220014  RH  048%=      5-min Rain = 0
KBY1 171730Z 36007KT 12/01 A3024 RMK A01 T01220014  RH  048%=      5-min Rain = 0
KBY1 171731Z 02005KT 12/02 A3024 RMK A01 T01230015  RH  048%=      5-min Rain = 0
KBY1 171732Z 02007KT 12/02 A3024 RMK A01 T01240016  RH  048%=      5-min Rain = 0
KBY1 171733Z 01005KT 12/01 A3024 RMK A01 T01240014  RH  047%=      5-min Rain = 0
KBY1 171734Z 01006KT 12/01 A3024 RMK A01 T01210012  RH  047%=      5-min Rain = 0
KBY1 171735Z 00006KT 12/01 A3024 RMK A01 T01180013  RH  049%=      5-min Rain = 0
KBY1 171736Z 36008KT 12/02 A3024 RMK A01 T01200015  RH  049%=      5-min Rain = 0
KBY1 171737Z 36006KT 12/01 A3024 RMK A01 T01200014  RH  048%=      5-min Rain = 0
KBY1 171738Z 02009KT 12/01 A3023 RMK A01 T01190013  RH  048%=      5-min Rain = 0
KBY1 171739Z 01007KT 12/01 A3024 RMK A01 T01190014  RH  049%=      5-min Rain = 0
KBY1 171740Z 36006KT 12/02 A3024 RMK A01 T01200015  RH  049%=      5-min Rain = 0
KBY1 171741Z 01008KT 12/02 A3024 RMK A01 T01220017  RH  049%=      5-min Rain = 0
KBY1 171742Z 00007KT 12/02 A3023 RMK A01 T01240016  RH  048%=      5-min Rain = 0
KBY1 171743Z 00008KT 12/01 A3023 RMK A01 T01210014  RH  048%=      5-min Rain = 0
KBY1 171744Z 02004G9KT 12/01 A3023 RMK A01 T01190014  RH  049%=      5-min Rain = 0
KBY1 171745Z 03010KT 12/02 A3023 RMK A01 T01190016  RH  049%=      5-min Rain = 0
KBY1 171746Z 34006KT 12/02 A3023 RMK A01 T01210017  RH  049%=      5-min Rain = 0
KBY1 171747Z 34003G9KT 12/02 A3023 RMK A01 T01240018  RH  048%=      5-min Rain = 0
KBY1 171748Z 34005KT 13/02 A3023 RMK A01 T01260017  RH  047%=      5-min Rain = 0
KBY1 171749Z 36006KT 13/02 A3023 RMK A01 T01260016  RH  047%=      5-min Rain = 0
KBY1 171750Z 36005KT 12/01 A3023 RMK A01 T01230013  RH  047%=      5-min Rain = 0
KBY1 171751Z 36006KT 12/02 A3023 RMK A01 T01210015  RH  048%=      5-min Rain = 0
KBY1 171752Z 35005KT 13/02 A3023 RMK A01 T01260018  RH  048%=      5-min Rain = 0
KBY1 171753Z 35006KT 13/02 A3023 RMK A01 T01290017  RH  046%=      5-min Rain = 0
KBY1 171754Z 34005KT 13/02 A3023 RMK A01 T01270015  RH  046%=      5-min Rain = 0
KBY1 171755Z 02005KT 13/02 A3022 RMK A01 T01260015  RH  047%=      5-min Rain = 0
KBY1 171756Z 04006KT 13/02 A3022 RMK A01 T01260016  RH  047%=      5-min Rain = 0
KBY1 171757Z 03005KT 13/01 A3022 RMK A01 T01250014  RH  047%=      5-min Rain = 0
KBY1 171758Z 01005KT 12/02 A3022 RMK A01 T01230015  RH  048%=      5-min Rain = 0
KBY1 171759Z 36006KT 12/02 A3022 RMK A01 T01230015  RH  048%=      5-min Rain = 0
KBY1 171800Z 00004KT 12/01 A3022 RMK A01 T01240014  RH  047%=      5-min Rain = 0
KBY1 171801Z 04005KT 12/02 A3022 RMK A01 T01240016  RH  047%=      5-min Rain = 0
KBY1 171802Z 04004KT 13/01 A3022 RMK A01 T01250014  RH  047%=      5-min Rain = 0
KBY1 171803Z 00007KT 13/01 A3022 RMK A01 T01250014  RH  047%=      5-min Rain = 0
KBY1 171804Z 34006KT 12/02 A3022 RMK A01 T01240015  RH  047%=      5-min Rain = 0
KBY1 171805Z 36005KT 13/02 A3021 RMK A01 T01260015  RH  047%=      5-min Rain = 0
KBY1 171806Z 36006KT 13/02 A3021 RMK A01 T01280017  RH  047%=      5-min Rain = 0
KBY1 171807Z 33006KT 13/02 A3021 RMK A01 T01300015  RH  046%=      5-min Rain = 0
KBY1 171808Z 36006KT 13/02 A3021 RMK A01 T01290015  RH  046%=      5-min Rain = 0
KBY1 171809Z 36004KT 13/01 A3021 RMK A01 T01280014  RH  046%=      5-min Rain = 0
KBY1 171810Z 01004KT 13/02 A3021 RMK A01 T01270015  RH  046%=      5-min Rain = 0
KBY1 171811Z 01003KT 13/02 A3021 RMK A01 T01280015  RH  046%=      5-min Rain = 0
KBY1 171812Z 03003KT 13/02 A3021 RMK A01 T01290015  RH  046%=      5-min Rain = 0
KBY1 171813Z 02005KT 13/02 A3021 RMK A01 T01300016  RH  046%=      5-min Rain = 0
KBY1 171814Z 00005KT 13/02 A3021 RMK A01 T01320017  RH  046%=      5-min Rain = 0
KBY1 171815Z 35006KT 13/02 A3021 RMK A01 T01330015  RH  045%=      5-min Rain = 0
KBY1 171816Z 00005KT 13/01 A302 RMK A01 T01290012  RH  045%=      5-min Rain = 0
KBY1 171817Z 00006KT 13/01 A302 RMK A01 T01280014  RH  046%=      5-min Rain = 0
KBY1 171818Z 01006KT 13/01 A302 RMK A01 T01270013  RH  046%=      5-min Rain = 0
KBY1 171819Z 02004KT 13/01 A302 RMK A01 T01270013  RH  046%=      5-min Rain = 0
KBY1 171820Z 03005KT 13/01 A302 RMK A01 T01270014  RH  046%=      5-min Rain = 0
KBY1 171821Z 02004KT 13/01 A302 RMK A01 T01270012  RH  046%=      5-min Rain = 0
KBY1 171822Z 03001KT 13/01 A302 RMK A01 T01270012  RH  046%=      5-min Rain = 0
KBY1 171823Z 33001KT 13/01 A302 RMK A01 T01270012  RH  046%=      5-min Rain = 0
KBY1 171824Z 28002KT 13/01 A302 RMK A01 T01280013  RH  046%=      5-min Rain = 0
KBY1 171825Z 35002KT 13/02 A302 RMK A01 T01310015  RH  045%=      5-min Rain = 0
KBY1 171826Z 01005KT 13/01 A302 RMK A01 T01330014  RH  044%=      5-min Rain = 0
KBY1 171827Z 02006KT 13/01 A302 RMK A01 T01320013  RH  045%=      5-min Rain = 0
KBY1 171828Z 33009KT 13/01 A302 RMK A01 T01300013  RH  045%=      5-min Rain = 0
KBY1 171829Z 01008KT 13/02 A302 RMK A01 T01320016  RH  045%=      5-min Rain = 0
KBY1 171830Z 02010KT 13/02 A3019 RMK A01 T01340015  RH  044%=      5-min Rain = 0
KBY1 171831Z 02009KT 13/01 A3019 RMK A01 T01310012  RH  044%=      5-min Rain = 0
KBY1 171832Z 03008KT 13/01 A3019 RMK A01 T01290013  RH  045%=      5-min Rain = 0
KBY1 171833Z 35006KT 13/01 A3019 RMK A01 T01300013  RH  045%=      5-min Rain = 0
KBY1 171834Z 35006KT 13/01 A3019 RMK A01 T01310014  RH  045%=      5-min Rain = 0
KBY1 171835Z 02004KT 13/01 A3019 RMK A01 T01300012  RH  045%=      5-min Rain = 0
KBY1 171836Z 03004KT 13/01 A3019 RMK A01 T01280012  RH  045%=      5-min Rain = 0
KBY1 171837Z 03003KT 13/01 A3019 RMK A01 T01280014  RH  046%=      5-min Rain = 0
KBY1 171838Z 07001KT 13/01 A3019 RMK A01 T01290014  RH  045%=      5-min Rain = 0
KBY1 171839Z 01000KT 13/01 A3019 RMK A01 T01310014  RH  045%=      5-min Rain = 0
KBY1 171840Z 04003KT 13/01 A3019 RMK A01 T01330014  RH  044%=      5-min Rain = 0
KBY1 171841Z 05003KT 13/02 A3019 RMK A01 T01330015  RH  044%=      5-min Rain = 0
KBY1 171842Z 35004KT 13/01 A3019 RMK A01 T01340014  RH  044%=      5-min Rain = 0
KBY1 171843Z 01006KT 14/01 A3019 RMK A01 T01350013  RH  044%=      5-min Rain = 0
KBY1 171844Z 34006KT 14/02 A3018 RMK A01 T01350015  RH  044%=      5-min Rain = 0
KBY1 171845Z 33005KT 14/02 A3018 RMK A01 T01370015  RH  044%=      5-min Rain = 0
KBY1 171846Z 03006KT 14/02 A3018 RMK A01 T01370015  RH  043%=      5-min Rain = 0
KBY1 171847Z 03006KT 14/01 A3018 RMK A01 T01370013  RH  043%=      5-min Rain = 0
KBY1 171848Z 03006KT 14/01 A3018 RMK A01 T01350012  RH  043%=      5-min Rain = 0
KBY1 171849Z 02005KT 13/01 A3018 RMK A01 T01340013  RH  043%=      5-min Rain = 0
KBY1 171850Z 35004KT 13/01 A3018 RMK A01 T01340012  RH  043%=      5-min Rain = 0
KBY1 171851Z 34002KT 13/01 A3018 RMK A01 T01340012  RH  043%=      5-min Rain = 0
KBY1 171852Z 35002KT 13/01 A3018 RMK A01 T01340012  RH  043%=      5-min Rain = 0
KBY1 171853Z 34003KT 13/01 A3018 RMK A01 T01340013  RH  044%=      5-min Rain = 0
KBY1 171854Z 33005KT 14/01 A3018 RMK A01 T01360013  RH  043%=      5-min Rain = 0
KBY1 171855Z 33004KT 14/01 A3018 RMK A01 T01370012  RH  043%=      5-min Rain = 0
KBY1 171856Z 33006KT 14/01 A3018 RMK A01 T01360012  RH  043%=      5-min Rain = 0
KBY1 171857Z 31007KT 14/01 A3018 RMK A01 T01350012  RH  043%=      5-min Rain = 0
KBY1 171858Z 33006KT 14/01 A3018 RMK A01 T01360013  RH  043%=      5-min Rain = 0
KBY1 171859Z 34007KT 14/02 A3018 RMK A01 T01390015  RH  043%=      5-min Rain = 0
KBY1 171900Z 01007KT 14/01 A3017 RMK A01 T01410014  RH  042%=      5-min Rain = 0
KBY1 171901Z 06006KT 14/01 A3017 RMK A01 T01400012  RH  042%=      5-min Rain = 0
KBY1 171902Z 10003KT 14/01 A3017 RMK A01 T01360010  RH  042%=      5-min Rain = 0
KBY1 171903Z 13000KT 13/01 A3017 RMK A01 T01340011  RH  043%=      5-min Rain = 0
KBY1 171904Z 32002KT 14/01 A3017 RMK A01 T01350012  RH  043%=      5-min Rain = 0
KBY1 171905Z 30004KT 14/01 A3017 RMK A01 T01370012  RH  043%=      5-min Rain = 0
KBY1 171906Z 26002KT 14/01 A3017 RMK A01 T01390012  RH  042%=      5-min Rain = 0
KBY1 171907Z 30002KT 14/01 A3017 RMK A01 T01380011  RH  042%=      5-min Rain = 0
KBY1 171908Z 31004KT 14/01 A3017 RMK A01 T01390011  RH  042%=      5-min Rain = 0
KBY1 171909Z 01004KT 14/01 A3017 RMK A01 T01390011  RH  042%=      5-min Rain = 0
KBY1 171910Z 01005KT 14/01 A3017 RMK A01 T01400011  RH  042%=      5-min Rain = 0
KBY1 171911Z 03005KT 14/01 A3016 RMK A01 T01390010  RH  041%=      5-min Rain = 0
KBY1 171912Z 00004KT 14/01 A3016 RMK A01 T01380011  RH  042%=      5-min Rain = 0
KBY1 171913Z 35006G11KT 14/01 A3016 RMK A01 T01420014  RH  042%=      5-min Rain = 0
KBY1 171914Z 36007KT 14/01 A3016 RMK A01 T01440012  RH  041%=      5-min Rain = 0
KBY1 171915Z 36007KT 14/01 A3016 RMK A01 T01410011  RH  041%=      5-min Rain = 0
KBY1 171916Z 34005KT 14/01 A3016 RMK A01 T01400011  RH  041%=      5-min Rain = 0
KBY1 171917Z 36004KT 14/01 A3016 RMK A01 T01410011  RH  041%=      5-min Rain = 0
KBY1 171918Z 35004KT 14/01 A3016 RMK A01 T01420012  RH  041%=      5-min Rain = 0
KBY1 171919Z 34003KT 14/01 A3016 RMK A01 T01430010  RH  040%=      5-min Rain = 0
KBY1 171920Z 33002KT 14/01 A3016 RMK A01 T01400010  RH  041%=      5-min Rain = 0
KBY1 171921Z 36002KT 14/01 A3016 RMK A01 T01390010  RH  041%=      5-min Rain = 0
KBY1 171922Z 30003KT 14/01 A3016 RMK A01 T01410011  RH  041%=      5-min Rain = 0
KBY1 171923Z 01002KT 14/01 A3015 RMK A01 T01420011  RH  041%=      5-min Rain = 0
KBY1 171924Z 07003KT 14/01 A3015 RMK A01 T01430008  RH  040%=      5-min Rain = 0
KBY1 171925Z 06004KT 14/01 A3015 RMK A01 T01430007  RH  040%=      5-min Rain = 0
KBY1 171926Z 06003KT 14/01 A3015 RMK A01 T01410006  RH  040%=      5-min Rain = 0
KBY1 171927Z 07002KT 14/01 A3015 RMK A01 T01390007  RH  041%=      5-min Rain = 0
KBY1 171928Z 03002KT 14/01 A3015 RMK A01 T01400008  RH  041%=      5-min Rain = 0
KBY1 171929Z 05003KT 14/01 A3014 RMK A01 T01400008  RH  040%=      5-min Rain = 0
KBY1 171930Z 07003KT 14/01 A3014 RMK A01 T01410009  RH  040%=      5-min Rain = 0
KBY1 171931Z 11001KT 14/01 A3014 RMK A01 T01440010  RH  040%=      5-min Rain = 0
KBY1 171932Z 03002KT 15/01 A3014 RMK A01 T01460010  RH  039%=      5-min Rain = 0
KBY1 171933Z 04005KT 15/01 A3014 RMK A01 T01460008  RH  039%=      5-min Rain = 0
KBY1 171934Z 02005KT 15/01 A3014 RMK A01 T01450005  RH  039%=      5-min Rain = 0
KBY1 171935Z 03005KT 15/01 A3014 RMK A01 T01450005  RH  038%=      5-min Rain = 0
KBY1 171936Z 35005KT 15/01 A3014 RMK A01 T01470005  RH  038%=      5-min Rain = 0
KBY1 171937Z 33005KT 15/00 A3014 RMK A01 T01480004  RH  037%=      5-min Rain = 0
KBY1 171938Z 00006KT 15/00 A3014 RMK A01 T01460002  RH  037%=      5-min Rain = 0
KBY1 171939Z 01005KT 14/00 A3014 RMK A01 T01430001  RH  038%=      5-min Rain = 0
KBY1 171940Z 00004KT 14/00 A3014 RMK A01 T01410002  RH  039%=      5-min Rain = 0
KBY1 171941Z 01005KT 14/00 A3013 RMK A01 T01410002  RH  039%=      5-min Rain = 0
KBY1 171942Z 01004KT 14/01 A3013 RMK A01 T01440005  RH  039%=      5-min Rain = 0
KBY1 171943Z 02004KT 15/00 A3013 RMK A01 T01450004  RH  038%=      5-min Rain = 0
KBY1 171944Z 02004KT 15/01 A3013 RMK A01 T01470006  RH  038%=      5-min Rain = 0
KBY1 171945Z 02003KT 15/01 A3013 RMK A01 T01460005  RH  038%=      5-min Rain = 0
KBY1 171946Z 03004KT 14/00 A3013 RMK A01 T01430004  RH  038%=      5-min Rain = 0
KBY1 171947Z 04002KT 14/00 A3013 RMK A01 T01420004  RH  039%=      5-min Rain = 0
KBY1 171948Z 07001KT 14/00 A3013 RMK A01 T01410004  RH  039%=      5-min Rain = 0
KBY1 171949Z 12001KT 14/00 A3013 RMK A01 T01410004  RH  039%=      5-min Rain = 0
KBY1 171950Z 09003KT 14/01 A3013 RMK A01 T01430006  RH  039%=      5-min Rain = 0
KBY1 171951Z 06005KT 15/01 A3013 RMK A01 T01460006  RH  039%=      5-min Rain = 0
KBY1 171952Z 04005KT 15/01 A3013 RMK A01 T01450005  RH  038%=      5-min Rain = 0
KBY1 171953Z 02004KT 15/01 A3013 RMK A01 T01450005  RH  039%=      5-min Rain = 0
KBY1 171954Z 35004KT 15/00 A3013 RMK A01 T01450003  RH  038%=      5-min Rain = 0
KBY1 171955Z 04004KT 15/00 A3013 RMK A01 T01450003  RH  038%=      5-min Rain = 0
KBY1 171956Z 04005KT 14/00 A3013 RMK A01 T01440002  RH  038%=      5-min Rain = 0
KBY1 171957Z 35004KT 14/00 A3013 RMK A01 T01430003  RH  038%=      5-min Rain = 0
KBY1 171958Z 35004KT 14/00 A3012 RMK A01 T01440002  RH  038%=      5-min Rain = 0
KBY1 171959Z 32002KT 15/00 A3012 RMK A01 T01450002  RH  038%=      5-min Rain = 0
KBY1 172000Z 33002KT 15/00 A3012 RMK A01 T01470004  RH  038%=      5-min Rain = 0
KBY1 172001Z 32002KT 15/01 A3012 RMK A01 T01490005  RH  037%=      5-min Rain = 0
KBY1 172002Z 35004KT 15/01 A3012 RMK A01 T01500005  RH  037%=      5-min Rain = 0
KBY1 172003Z 00006KT 15/01 A3012 RMK A01 T01510006  RH  037%=      5-min Rain = 0
KBY1 172004Z 35005KT 15/00 A3012 RMK A01 T01480002  RH  037%=      5-min Rain = 0
KBY1 172005Z 35004KT 15/00 A3012 RMK A01 T01470003  RH  038%=      5-min Rain = 0
KBY1 172006Z 02004KT 15/01 A3012 RMK A01 T01480005  RH  038%=      5-min Rain = 0
KBY1 172007Z 33005KT 15/01 A3012 RMK A01 T01500006  RH  037%=      5-min Rain = 0
KBY1 172008Z 32004KT 15/00 A3012 RMK A01 T01500004  RH  037%=      5-min Rain = 0
KBY1 172009Z 31003KT 15/00 A3012 RMK A01 T01480002  RH  037%=      5-min Rain = 0
KBY1 172010Z 32005KT 15/00 A3012 RMK A01 T01470003  RH  037%=      5-min Rain = 0
KBY1 172011Z 30003KT 15/00 A3012 RMK A01 T01470003  RH  037%=      5-min Rain = 0
KBY1 172012Z 29002KT 15/00 A3012 RMK A01 T01450003  RH  038%=      5-min Rain = 0
KBY1 172013Z 01002KT 15/01 A3012 RMK A01 T01470005  RH  038%=      5-min Rain = 0
KBY1 172014Z 30002KT 15/00 A3012 RMK A01 T01490004  RH  037%=      5-min Rain = 0
KBY1 172015Z 29004KT 15/00 A3012 RMK A01 T01500004  RH  037%=      5-min Rain = 0
KBY1 172016Z 27003KT 15/00 A3011 RMK A01 T01500003  RH  037%=      5-min Rain = 0
KBY1 172017Z 24002KT 15/00 A3011 RMK A01 T01490003  RH  037%=      5-min Rain = 0
KBY1 172018Z 21000KT 15/00 A3011 RMK A01 T01480002  RH  037%=      5-min Rain = 0
KBY1 172019Z 26000KT 15/00 A3011 RMK A01 T01490003  RH  037%=      5-min Rain = 0
KBY1 172020Z 26000KT 15/00 A3011 RMK A01 T01510004  RH  037%=      5-min Rain = 0
KBY1 172021Z 29003KT 15/00 A3011 RMK A01 T01520004  RH  037%=      5-min Rain = 0
KBY1 172022Z 28003KT 15/00 A3011 RMK A01 T01520004  RH  036%=      5-min Rain = 0
KBY1 172023Z 31003KT 15/00 A3011 RMK A01 T01510004  RH  037%=      5-min Rain = 0
KBY1 172024Z 32001KT 15/00 A3011 RMK A01 T01500003  RH  037%=      5-min Rain = 0
KBY1 172025Z 34001KT 15/00 A3011 RMK A01 T01490002  RH  037%=      5-min Rain = 0
KBY1 172026Z 00000KT 15/00 A3011 RMK A01 T01490002  RH  037%=      5-min Rain = 0
KBY1 172027Z 27001KT 15/00 A3011 RMK A01 T01500002  RH  036%=      5-min Rain = 0
KBY1 172028Z 29004KT 15/00 A3011 RMK A01 T01520002  RH  036%=      5-min Rain = 0
KBY1 172029Z 01004KT 15/00 A3011 RMK A01 T01520003  RH  036%=      5-min Rain = 0
KBY1 172030Z 35006KT 15/00 A3011 RMK A01 T01540004  RH  036%=      5-min Rain = 0
KBY1 172031Z 36006KT 15/00 A3011 RMK A01 T01530002  RH  036%=      5-min Rain = 0
KBY1 172032Z 01005KT 15/00 A3011 RMK A01 T01500002  RH  036%=      5-min Rain = 0
KBY1 172033Z 00003KT 15/00 A3011 RMK A01 T01500002  RH  037%=      5-min Rain = 0
KBY1 172034Z 00003KT 15/00 A3011 RMK A01 T01500002  RH  036%=      5-min Rain = 0
KBY1 172035Z 01002KT 15/00 A3011 RMK A01 T01490000  RH  036%=      5-min Rain = 0
KBY1 172036Z 02000KT 15/M00 A3011 RMK A01 T01491001  RH  036%=      5-min Rain = 0
KBY1 172037Z 07000KT 15/00 A3011 RMK A01 T014900-0  RH  036%=      5-min Rain = 0
KBY1 172038Z 09001KT 15/M00 A3011 RMK A01 T01511001  RH  035%=      5-min Rain = 0
KBY1 172039Z 08002KT 15/00 A3011 RMK A01 T015100-0  RH  036%=      5-min Rain = 0
KBY1 172040Z 06001KT 15/00 A3011 RMK A01 T015200-0  RH  035%=      5-min Rain = 0
KBY1 172041Z 06000KT 15/M00 A301 RMK A01 T01521002  RH  035%=      5-min Rain = 0
KBY1 172042Z 17001KT 15/M00 A301 RMK A01 T01521002  RH  035%=      5-min Rain = 0
KBY1 172043Z 06002KT 15/00 A301 RMK A01 T015300-0  RH  035%=      5-min Rain = 0
KBY1 172044Z 04003KT 15/M00 A301 RMK A01 T01541001  RH  035%=      5-min Rain = 0
KBY1 172045Z 36005KT 15/M00 A301 RMK A01 T01541002  RH  035%=      5-min Rain = 0
KBY1 172046Z 35004KT 16/M00 A301 RMK A01 T01551001  RH  034%=      5-min Rain = 0
KBY1 172047Z 35001KT 15/M01 A301 RMK A01 T01531005  RH  034%=      5-min Rain = 0
KBY1 172048Z 04000KT 15/M00 A301 RMK A01 T01521004  RH  034%=      5-min Rain = 0
KBY1 172049Z 05003KT 15/M00 A301 RMK A01 T01531002  RH  035%=      5-min Rain = 0
KBY1 172050Z 06005KT 16/M00 A301 RMK A01 T01551001  RH  035%=      5-min Rain = 0
KBY1 172051Z 06005KT 15/M00 A301 RMK A01 T01541001  RH  035%=      5-min Rain = 0
KBY1 172052Z 07004KT 15/M00 A301 RMK A01 T01541001  RH  035%=      5-min Rain = 0
KBY1 172053Z 09003KT 15/M00 A301 RMK A01 T01531002  RH  035%=      5-min Rain = 0
KBY1 172054Z 14002KT 15/M00 A301 RMK A01 T01521002  RH  035%=      5-min Rain = 0
KBY1 172055Z 08001KT 15/M00 A301 RMK A01 T01511002  RH  035%=      5-min Rain = 0
KBY1 172056Z 14002KT 15/M00 A301 RMK A01 T01521002  RH  035%=      5-min Rain = 0
KBY1 172057Z 09002KT 15/M00 A301 RMK A01 T01531001  RH  035%=      5-min Rain = 0
KBY1 172058Z 05001KT 16/M00 A301 RMK A01 T01551001  RH  035%=      5-min Rain = 0
KBY1 172059Z 00001KT 16/M00 A301 RMK A01 T01551002  RH  034%=      5-min Rain = 0
KBY1 172100Z 01003KT 16/M00 A301 RMK A01 T01551002  RH  034%=      5-min Rain = 0
KBY1 172101Z 05005KT 16/M00 A301 RMK A01 T01551002  RH  034%=      5-min Rain = 0
KBY1 172102Z 06005KT 16/M00 A301 RMK A01 T01561002  RH  034%=      5-min Rain = 0
KBY1 172103Z 08005KT 16/M00 A301 RMK A01 T01561002  RH  034%=      5-min Rain = 0
KBY1 172104Z 07003KT 16/M00 A301 RMK A01 T01561002  RH  034%=      5-min Rain = 0
KBY1 172105Z 06005KT 16/00 A301 RMK A01 T01560000  RH  035%=      5-min Rain = 0
KBY1 172106Z 05005KT 16/00 A301 RMK A01 T01570000  RH  034%=      5-min Rain = 0
KBY1 172107Z 05003KT 16/00 A301 RMK A01 T01570000  RH  034%=      5-min Rain = 0
KBY1 172108Z 05003KT 16/00 A301 RMK A01 T01560000  RH  034%=      5-min Rain = 0
KBY1 172109Z 07002KT 16/M00 A3009 RMK A01 T01571001  RH  034%=      5-min Rain = 0
KBY1 172110Z 04003KT 16/00 A3009 RMK A01 T01570001  RH  035%=      5-min Rain = 0
KBY1 172111Z 31005KT 16/00 A3009 RMK A01 T01560001  RH  035%=      5-min Rain = 0
KBY1 172112Z 27004KT 16/00 A3009 RMK A01 T01560002  RH  035%=      5-min Rain = 0
KBY1 172113Z 26004KT 16/00 A3009 RMK A01 T01560003  RH  035%=      5-min Rain = 0
KBY1 172114Z 29006KT 16/00 A3009 RMK A01 T01560003  RH  035%=      5-min Rain = 0
KBY1 172115Z 29005KT 16/00 A3009 RMK A01 T01560004  RH  036%=      5-min Rain = 0
KBY1 172116Z 31005KT 16/00 A3009 RMK A01 T01550004  RH  036%=      5-min Rain = 0
KBY1 172117Z 31005KT 16/00 A3009 RMK A01 T01560004  RH  035%=      5-min Rain = 0
KBY1 172118Z 31003KT 16/00 A3009 RMK A01 T01550003  RH  036%=      5-min Rain = 0
KBY1 172119Z 30004KT 16/00 A3009 RMK A01 T01550004  RH  036%=      5-min Rain = 0
KBY1 172120Z 30003KT 16/00 A3009 RMK A01 T01550004  RH  036%=      5-min Rain = 0
KBY1 172121Z 29002KT 16/00 A3009 RMK A01 T01570004  RH  035%=      5-min Rain = 0
KBY1 172122Z 27001KT 16/01 A3009 RMK A01 T01590006  RH  035%=      5-min Rain = 0
KBY1 172123Z 29003KT 16/01 A3009 RMK A01 T01620006  RH  035%=      5-min Rain = 0
KBY1 172124Z 27005KT 16/01 A3009 RMK A01 T01630007  RH  035%=      5-min Rain = 0
KBY1 172125Z 26005KT 16/01 A3009 RMK A01 T01630005  RH  034%=      5-min Rain = 0
KBY1 172126Z 26004KT 16/00 A3009 RMK A01 T01610003  RH  034%=      5-min Rain = 0
KBY1 172127Z 26005KT 16/00 A3009 RMK A01 T01600004  RH  035%=      5-min Rain = 0
KBY1 172128Z 27003KT 16/00 A3009 RMK A01 T01580003  RH  035%=      5-min Rain = 0
KBY1 172129Z 26002KT 16/00 A3009 RMK A01 T01580004  RH  035%=      5-min Rain = 0
KBY1 172130Z 26002KT 16/00 A3009 RMK A01 T01580004  RH  035%=      5-min Rain = 0
KBY1 172131Z 25000KT 16/00 A3009 RMK A01 T01580002  RH  035%=      5-min Rain = 0
KBY1 172132Z 00000KT 16/00 A3009 RMK A01 T01580002  RH  035%=      5-min Rain = 0
KBY1 172133Z 00000KT 16/00 A3009 RMK A01 T01590002  RH  034%=      5-min Rain = 0
KBY1 172134Z 23001KT 16/00 A3009 RMK A01 T01610003  RH  034%=      5-min Rain = 0
KBY1 172135Z 21004KT 16/00 A3009 RMK A01 T01630004  RH  034%=      5-min Rain = 0
KBY1 172136Z 19004KT 16/00 A3009 RMK A01 T01630003  RH  034%=      5-min Rain = 0
KBY1 172137Z 20003KT 16/00 A3009 RMK A01 T01610003  RH  034%=      5-min Rain = 0
KBY1 172138Z 19003KT 16/00 A3009 RMK A01 T01600003  RH  034%=      5-min Rain = 0
KBY1 172139Z 20003KT 16/00 A3009 RMK A01 T01600003  RH  035%=      5-min Rain = 0
KBY1 172140Z 21002KT 16/00 A3009 RMK A01 T01600003  RH  034%=      5-min Rain = 0
KBY1 172141Z 20003KT 16/00 A3009 RMK A01 T01600003  RH  034%=      5-min Rain = 0
KBY1 172142Z 22003KT 16/00 A301 RMK A01 T01600003  RH  034%=      5-min Rain = 0
KBY1 172143Z 29002KT 16/00 A301 RMK A01 T01610003  RH  034%=      5-min Rain = 0
KBY1 172144Z 30002KT 16/00 A301 RMK A01 T01610002  RH  034%=      5-min Rain = 0
KBY1 172145Z 30004KT 16/00 A301 RMK A01 T01620002  RH  034%=      5-min Rain = 0
KBY1 172146Z 31005KT 16/00 A301 RMK A01 T01620001  RH  033%=      5-min Rain = 0
KBY1 172147Z 30004KT 16/00 A301 RMK A01 T016000-0  RH  034%=      5-min Rain = 0
KBY1 172148Z 30003KT 16/00 A301 RMK A01 T01590000  RH  034%=      5-min Rain = 0
KBY1 172149Z 31002KT 16/M00 A301 RMK A01 T01601002  RH  033%=      5-min Rain = 0
KBY1 172150Z 28001KT 16/M00 A301 RMK A01 T01591002  RH  033%=      5-min Rain = 0
KBY1 172151Z 00000KT 16/M00 A301 RMK A01 T01591001  RH  034%=      5-min Rain = 0
KBY1 172152Z 03000KT 16/00 A301 RMK A01 T016000-0  RH  034%=      5-min Rain = 0
KBY1 172153Z 33002KT 16/00 A301 RMK A01 T016000-0  RH  034%=      5-min Rain = 0
KBY1 172154Z 30003KT 16/00 A301 RMK A01 T01610000  RH  034%=      5-min Rain = 0
KBY1 172155Z 31002KT 16/M00 A301 RMK A01 T01601001  RH  033%=      5-min Rain = 0
KBY1 172156Z 33002KT 16/00 A301 RMK A01 T01600000  RH  034%=      5-min Rain = 0
KBY1 172157Z 31003KT 16/00 A301 RMK A01 T01600000  RH  034%=      5-min Rain = 0
KBY1 172158Z 26003KT 16/00 A301 RMK A01 T01600001  RH  034%=      5-min Rain = 0
KBY1 172159Z 26003KT 16/00 A301 RMK A01 T01600001  RH  034%=      5-min Rain = 0
KBY1 172200Z 26004KT 16/00 A301 RMK A01 T01600001  RH  034%=      5-min Rain = 0
KBY1 172201Z 24004KT 16/00 A301 RMK A01 T01600001  RH  034%=      5-min Rain = 0
KBY1 172202Z 24003KT 16/00 A301 RMK A01 T01600001  RH  034%=      5-min Rain = 0
KBY1 172203Z 22001KT 16/00 A301 RMK A01 T01590001  RH  034%=      5-min Rain = 0
KBY1 172204Z 24002KT 16/00 A301 RMK A01 T01580002  RH  034%=      5-min Rain = 0
KBY1 172205Z 24003KT 16/00 A301 RMK A01 T01600002  RH  034%=      5-min Rain = 0
KBY1 172206Z 24004KT 16/00 A301 RMK A01 T01620004  RH  034%=      5-min Rain = 0
KBY1 172207Z 24004KT 16/00 A301 RMK A01 T01620002  RH  034%=      5-min Rain = 0
KBY1 172208Z 24004KT 16/00 A301 RMK A01 T01610002  RH  034%=      5-min Rain = 0
KBY1 172209Z 27006KT 16/00 A301 RMK A01 T01600003  RH  034%=      5-min Rain = 0
KBY1 172210Z 27006KT 16/00 A301 RMK A01 T01600002  RH  034%=      5-min Rain = 0
KBY1 172211Z 27005KT 16/00 A301 RMK A01 T01580002  RH  035%=      5-min Rain = 0
KBY1 172212Z 27004KT 16/00 A301 RMK A01 T01570002  RH  035%=      5-min Rain = 0
KBY1 172213Z 26003KT 16/00 A301 RMK A01 T01560001  RH  035%=      5-min Rain = 0
KBY1 172214Z 28002KT 16/00 A301 RMK A01 T01560002  RH  035%=      5-min Rain = 0
KBY1 172215Z 24001KT 16/00 A301 RMK A01 T01570002  RH  035%=      5-min Rain = 0
KBY1 172216Z 21004KT 16/00 A3009 RMK A01 T01580002  RH  035%=      5-min Rain = 0
KBY1 172217Z 22004KT 16/00 A3009 RMK A01 T01590002  RH  034%=      5-min Rain = 0
KBY1 172218Z 24004KT 16/00 A3009 RMK A01 T01590002  RH  034%=      5-min Rain = 0
KBY1 172219Z 24002KT 16/00 A301 RMK A01 T01580002  RH  035%=      5-min Rain = 0
KBY1 172220Z 22004KT 16/00 A3009 RMK A01 T01590002  RH  035%=      5-min Rain = 0
KBY1 172221Z 24004KT 16/00 A3009 RMK A01 T01600002  RH  034%=      5-min Rain = 0
KBY1 172222Z 23006KT 16/00 A3009 RMK A01 T01590002  RH  034%=      5-min Rain = 0
KBY1 172223Z 23006KT 16/00 A3009 RMK A01 T01580002  RH  035%=      5-min Rain = 0
KBY1 172224Z 22006KT 16/00 A3009 RMK A01 T01570002  RH  035%=      5-min Rain = 0
KBY1 172225Z 21005KT 16/00 A3009 RMK A01 T01550001  RH  035%=      5-min Rain = 0
KBY1 172226Z 22006KT 16/00 A3009 RMK A01 T01550002  RH  035%=      5-min Rain = 0
KBY1 172227Z 23006KT 16/00 A3009 RMK A01 T01550001  RH  035%=      5-min Rain = 0
KBY1 172228Z 23006KT 16/00 A3009 RMK A01 T01550002  RH  035%=      5-min Rain = 0
KBY1 172229Z 23006KT 16/00 A3009 RMK A01 T01550002  RH  035%=      5-min Rain = 0
KBY1 172230Z 23005KT 16/00 A301 RMK A01 T01550002  RH  035%=      5-min Rain = 0
KBY1 172231Z 23005KT 16/00 A301 RMK A01 T01550002  RH  035%=      5-min Rain = 0
KBY1 172232Z 24005KT 16/00 A301 RMK A01 T01550001  RH  035%=      5-min Rain = 0
KBY1 172233Z 24005KT 15/00 A301 RMK A01 T01540001  RH  035%=      5-min Rain = 0
KBY1 172234Z 24005KT 16/00 A301 RMK A01 T01550001  RH  035%=      5-min Rain = 0
KBY1 172235Z 22004KT 16/00 A301 RMK A01 T01550001  RH  035%=      5-min Rain = 0
KBY1 172236Z 23004KT 16/00 A301 RMK A01 T01550000  RH  035%=      5-min Rain = 0
KBY1 172237Z 24005KT 15/00 A301 RMK A01 T01540001  RH  035%=      5-min Rain = 0
KBY1 172238Z 25005KT 15/00 A301 RMK A01 T01540001  RH  035%=      5-min Rain = 0
KBY1 172239Z 26004KT 15/00 A301 RMK A01 T01540002  RH  035%=      5-min Rain = 0
KBY1 172240Z 25004KT 15/00 A301 RMK A01 T01540001  RH  035%=      5-min Rain = 0
KBY1 172241Z 26005KT 15/00 A301 RMK A01 T01540002  RH  036%=      5-min Rain = 0
KBY1 172242Z 25004KT 15/00 A301 RMK A01 T01530002  RH  036%=      5-min Rain = 0
KBY1 172243Z 25004KT 15/00 A3009 RMK A01 T01530002  RH  036%=      5-min Rain = 0
KBY1 172244Z 24004KT 15/00 A3009 RMK A01 T01530002  RH  036%=      5-min Rain = 0
KBY1 172245Z 23004KT 15/00 A301 RMK A01 T01530002  RH  036%=      5-min Rain = 0
KBY1 172246Z 23004KT 15/00 A301 RMK A01 T01530002  RH  036%=      5-min Rain = 0
KBY1 172247Z 23004KT 15/00 A301 RMK A01 T01520001  RH  036%=      5-min Rain = 0
KBY1 172248Z 21003KT 15/00 A301 RMK A01 T01520001  RH  036%=      5-min Rain = 0
KBY1 172249Z 21004KT 15/00 A301 RMK A01 T01520002  RH  036%=      5-min Rain = 0
KBY1 172250Z 22004KT 15/00 A301 RMK A01 T01520002  RH  036%=      5-min Rain = 0
KBY1 172251Z 23003KT 15/00 A3009 RMK A01 T01510002  RH  036%=      5-min Rain = 0
KBY1 172252Z 22004KT 15/00 A3009 RMK A01 T01510002  RH  036%=      5-min Rain = 0
KBY1 172253Z 24005KT 15/00 A3009 RMK A01 T01510002  RH  036%=      5-min Rain = 0
KBY1 172254Z 25004KT 15/00 A3009 RMK A01 T01510001  RH  036%=      5-min Rain = 0
KBY1 172255Z 25004KT 15/00 A3009 RMK A01 T01510002  RH  036%=      5-min Rain = 0
KBY1 172256Z 24004KT 15/00 A3009 RMK A01 T01510002  RH  036%=      5-min Rain = 0
KBY1 172257Z 25004KT 15/00 A3009 RMK A01 T01500002  RH  036%=      5-min Rain = 0
KBY1 172258Z 26003KT 15/00 A301 RMK A01 T01500002  RH  036%=      5-min Rain = 0
KBY1 172259Z 25002KT 15/00 A301 RMK A01 T01500001  RH  036%=      5-min Rain = 0
KBY1 172300Z 26004KT 15/00 A301 RMK A01 T01500002  RH  036%=      5-min Rain = 0
KBY1 172301Z 25004KT 15/00 A3009 RMK A01 T01500002  RH  036%=      5-min Rain = 0
KBY1 172302Z 24003KT 15/00 A3009 RMK A01 T01500002  RH  036%=      5-min Rain = 0
KBY1 172303Z 25003KT 15/00 A3009 RMK A01 T01490002  RH  036%=      5-min Rain = 0
KBY1 172304Z 25004KT 15/00 A3009 RMK A01 T01490002  RH  037%=      5-min Rain = 0
KBY1 172305Z 25004KT 15/00 A3009 RMK A01 T01490002  RH  037%=      5-min Rain = 0
KBY1 172306Z 25004KT 15/00 A3009 RMK A01 T01480001  RH  037%=      5-min Rain = 0
KBY1 172307Z 25003KT 15/00 A3009 RMK A01 T01470001  RH  037%=      5-min Rain = 0
KBY1 172308Z 25003KT 15/00 A3009 RMK A01 T01470002  RH  037%=      5-min Rain = 0
KBY1 172309Z 26003KT 15/00 A3009 RMK A01 T01470001  RH  037%=      5-min Rain = 0
KBY1 172310Z 25003KT 15/00 A3009 RMK A01 T01470001  RH  037%=      5-min Rain = 0
KBY1 172311Z 24003KT 15/00 A3009 RMK A01 T01470002  RH  037%=      5-min Rain = 0
KBY1 172312Z 24003KT 15/00 A3009 RMK A01 T01460002  RH  037%=      5-min Rain = 0
KBY1 172313Z 24002KT 15/00 A3009 RMK A01 T01450001  RH  037%=      5-min Rain = 0
KBY1 172314Z 24003KT 15/00 A3009 RMK A01 T01450001  RH  037%=      5-min Rain = 0
KBY1 172315Z 24002KT 15/00 A3009 RMK A01 T01450001  RH  037%=      5-min Rain = 0
KBY1 172316Z 24003KT 15/00 A3009 RMK A01 T01450001  RH  037%=      5-min Rain = 0
KBY1 172317Z 23002KT 15/00 A3009 RMK A01 T01450000  RH  037%=      5-min Rain = 0
KBY1 172318Z 23002KT 14/00 A3009 RMK A01 T01440000  RH  037%=      5-min Rain = 0
KBY1 172319Z 23003KT 14/00 A3009 RMK A01 T01440000  RH  037%=      5-min Rain = 0
KBY1 172320Z 23003KT 14/00 A3009 RMK A01 T014300-0  RH  037%=      5-min Rain = 0
KBY1 172321Z 23003KT 14/M00 A3009 RMK A01 T01411001  RH  038%=      5-min Rain = 0
KBY1 172322Z 23002KT 14/M00 A3009 RMK A01 T01401001  RH  038%=      5-min Rain = 0
KBY1 172323Z 23002KT 14/M00 A3009 RMK A01 T01391001  RH  038%=      5-min Rain = 0
KBY1 172324Z 22003KT 14/M00 A3009 RMK A01 T01391001  RH  038%=      5-min Rain = 0
KBY1 172325Z 22002KT 14/M00 A3009 RMK A01 T01381001  RH  038%=      5-min Rain = 0
KBY1 172326Z 22002KT 14/M00 A3009 RMK A01 T01371001  RH  039%=      5-min Rain = 0
KBY1 172327Z 22002KT 14/M00 A3009 RMK A01 T01361001  RH  039%=      5-min Rain = 0
KBY1 172328Z 22002KT 13/M00 A3009 RMK A01 T01341001  RH  039%=      5-min Rain = 0
KBY1 172329Z 22002KT 13/M00 A3009 RMK A01 T01331001  RH  040%=      5-min Rain = 0
KBY1 172330Z 23002KT 13/M00 A3009 RMK A01 T01311002  RH  040%=      5-min Rain = 0
KBY1 172331Z 23002KT 13/M00 A3009 RMK A01 T01291002  RH  041%=      5-min Rain = 0
KBY1 172332Z 23002KT 13/M00 A3009 RMK A01 T01281002  RH  041%=      5-min Rain = 0
KBY1 172333Z 22002KT 13/M00 A3009 RMK A01 T01261002  RH  041%=      5-min Rain = 0
KBY1 172334Z 22002KT 13/M00 A3009 RMK A01 T01251002  RH  042%=      5-min Rain = 0
KBY1 172335Z 22001KT 12/M00 A3009 RMK A01 T01241002  RH  042%=      5-min Rain = 0
KBY1 172336Z 22001KT 12/M00 A3009 RMK A01 T01231002  RH  042%=      5-min Rain = 0
KBY1 172337Z 22002KT 12/M00 A3009 RMK A01 T01221002  RH  042%=      5-min Rain = 0
KBY1 172338Z 22002KT 12/M00 A3009 RMK A01 T01211003  RH  042%=      5-min Rain = 0
KBY1 172339Z 22002KT 12/M00 A3009 RMK A01 T01201003  RH  043%=      5-min Rain = 0
KBY1 172340Z 22002KT 12/M00 A3008 RMK A01 T01181003  RH  043%=      5-min Rain = 0
KBY1 172341Z 20003KT 12/M00 A3009 RMK A01 T01171003  RH  043%=      5-min Rain = 0
KBY1 172342Z 20003KT 12/M00 A3009 RMK A01 T01161004  RH  044%=      5-min Rain = 0
KBY1 172343Z 21002KT 11/M00 A3009 RMK A01 T01141004  RH  044%=      5-min Rain = 0
KBY1 172344Z 22002KT 11/M00 A3009 RMK A01 T01131004  RH  044%=      5-min Rain = 0
KBY1 172345Z 22001KT 11/M00 A3009 RMK A01 T01121004  RH  045%=      5-min Rain = 0
KBY1 172346Z 23001KT 11/M00 A3009 RMK A01 T01121003  RH  045%=      5-min Rain = 0
KBY1 172347Z 23001KT 11/M00 A3009 RMK A01 T01121003  RH  045%=      5-min Rain = 0
KBY1 172348Z 23001KT 11/M00 A3009 RMK A01 T01121003  RH  045%=      5-min Rain = 0
KBY1 172349Z 23001KT 11/M00 A3009 RMK A01 T01121003  RH  045%=      5-min Rain = 0
KBY1 172350Z 22001KT 11/M00 A3009 RMK A01 T01121003  RH  045%=      5-min Rain = 0
KBY1 172351Z 22001KT 11/M00 A3009 RMK A01 T01121003  RH  045%=      5-min Rain = 0
KBY1 172352Z 23001KT 11/M00 A3009 RMK A01 T01121003  RH  045%=      5-min Rain = 0
KBY1 172353Z 22001KT 11/M00 A3009 RMK A01 T01111003  RH  045%=      5-min Rain = 0
KBY1 172354Z 22002KT 11/M00 A3009 RMK A01 T01101003  RH  045%=      5-min Rain = 0
KBY1 172355Z 22002KT 11/M00 A3009 RMK A01 T01101003  RH  046%=      5-min Rain = 0
KBY1 172356Z 23001KT 11/M00 A3009 RMK A01 T01091003  RH  046%=      5-min Rain = 0
KBY1 172357Z 23001KT 11/M00 A3009 RMK A01 T01091004  RH  046%=      5-min Rain = 0
KBY1 172358Z 23001KT 11/M00 A3009 RMK A01 T01091003  RH  046%=      5-min Rain = 0
KBY1 172359Z 22002KT 11/M00 A3009 RMK A01 T01091003  RH  046%=      5-min Rain = 0
KBY1 180000Z 22001KT 11/M00 A3009 RMK A01 T01081003  RH  046%=      5-min Rain = 0
KBY1 180001Z 21001KT 11/M00 A3009 RMK A01 T01081003  RH  046%=      5-min Rain = 0
KBY1 180002Z 20001KT 11/M01 A3009 RMK A01 T01071005  RH  046%=      5-min Rain = 0
KBY1 180003Z 20001KT 11/M01 A3009 RMK A01 T01051006  RH  046%=      5-min Rain = 0
KBY1 180004Z 21001KT 10/M01 A3009 RMK A01 T01041006  RH  047%=      5-min Rain = 0
KBY1 180005Z 21001KT 10/M01 A3009 RMK A01 T01021006  RH  047%=      5-min Rain = 0
KBY1 180006Z 21000KT 10/M01 A3009 RMK A01 T01011005  RH  048%=      5-min Rain = 0
KBY1 180007Z 00000KT 10/M01 A3009 RMK A01 T01011005  RH  048%=      5-min Rain = 0
KBY1 180008Z 00000KT 10/M01 A3009 RMK A01 T01011005  RH  048%=      5-min Rain = 0
KBY1 180009Z 00000KT 10/M01 A3009 RMK A01 T01011005  RH  048%=      5-min Rain = 0
KBY1 180010Z 00000KT 10/M00 A3009 RMK A01 T01011004  RH  048%=      5-min Rain = 0
KBY1 180011Z 00000KT 10/M00 A3009 RMK A01 T01011004  RH  048%=      5-min Rain = 0
KBY1 180012Z 00000KT 10/M00 A3009 RMK A01 T01011004  RH  048%=      5-min Rain = 0
KBY1 180013Z 00000KT 10/M00 A3009 RMK A01 T01021004  RH  048%=      5-min Rain = 0
KBY1 180014Z 00000KT 10/M00 A3009 RMK A01 T01031004  RH  048%=      5-min Rain = 0
KBY1 180015Z 00000KT 10/M00 A3009 RMK A01 T01031004  RH  048%=      5-min Rain = 0
KBY1 180016Z 00000KT 10/M00 A3009 RMK A01 T01021004  RH  048%=      5-min Rain = 0
KBY1 180017Z 00000KT 10/M00 A3009 RMK A01 T01031004  RH  048%=      5-min Rain = 0
KBY1 180018Z 00000KT 10/M00 A3009 RMK A01 T01031003  RH  048%=      5-min Rain = 0
KBY1 180019Z 00000KT 10/M00 A3009 RMK A01 T01031003  RH  048%=      5-min Rain = 0
KBY1 180020Z 00000KT 10/M00 A3009 RMK A01 T01041003  RH  047%=      5-min Rain = 0
KBY1 180021Z 00000KT 10/M00 A3009 RMK A01 T01031004  RH  047%=      5-min Rain = 0
KBY1 180022Z 00000KT 10/M00 A3009 RMK A01 T01031004  RH  048%=      5-min Rain = 0
KBY1 180023Z 00000KT 10/M00 A3009 RMK A01 T01021004  RH  048%=      5-min Rain = 0
KBY1 180024Z 00000KT 10/M00 A3009 RMK A01 T01021004  RH  048%=      5-min Rain = 0
KBY1 180025Z 00000KT 10/M00 A3009 RMK A01 T01021004  RH  048%=      5-min Rain = 0
KBY1 180026Z 00000KT 10/M00 A3009 RMK A01 T01021004  RH  048%=      5-min Rain = 0
KBY1 180027Z 00000KT 10/M00 A3009 RMK A01 T01021004  RH  048%=      5-min Rain = 0
KBY1 180028Z 00000KT 10/M00 A3009 RMK A01 T01021003  RH  048%=      5-min Rain = 0
KBY1 180029Z 00000KT 10/M00 A3009 RMK A01 T01021004  RH  048%=      5-min Rain = 0
KBY1 180030Z 00000KT 10/M00 A3009 RMK A01 T01021004  RH  048%=      5-min Rain = 0
KBY1 180031Z 00000KT 10/M00 A3009 RMK A01 T01021004  RH  048%=      5-min Rain = 0
KBY1 180032Z 00000KT 10/M00 A3009 RMK A01 T01021003  RH  048%=      5-min Rain = 0
KBY1 180033Z 18000KT 10/M01 A3009 RMK A01 T01001007  RH  047%=      5-min Rain = 0
KBY1 180034Z 16001KT 10/M01 A3009 RMK A01 T00971010  RH  047%=      5-min Rain = 0
KBY1 180035Z 15001KT 09/M01 A3009 RMK A01 T00931011  RH  048%=      5-min Rain = 0
KBY1 180036Z 15001KT 09/M01 A3009 RMK A01 T00871011  RH  050%=      5-min Rain = 0
KBY1 180037Z 14001KT 08/M01 A3009 RMK A01 T00821014  RH  051%=      5-min Rain = 0
KBY1 180038Z 14001KT 08/M02 A3009 RMK A01 T00761018  RH  051%=      5-min Rain = 0
KBY1 180039Z 13001KT 07/M02 A3009 RMK A01 T00711018  RH  053%=      5-min Rain = 0
KBY1 180040Z 08000KT 07/M02 A3009 RMK A01 T00681016  RH  055%=      5-min Rain = 0
KBY1 180041Z 05001KT 07/M01 A3009 RMK A01 T00661012  RH  057%=      5-min Rain = 0
KBY1 180042Z 06001KT 07/M01 A3009 RMK A01 T00671010  RH  058%=      5-min Rain = 0
KBY1 180043Z 05001KT 07/M01 A3009 RMK A01 T00701008  RH  058%=      5-min Rain = 0
KBY1 180044Z 06001KT 07/M01 A3009 RMK A01 T00731006  RH  057%=      5-min Rain = 0
KBY1 180045Z 05002KT 08/M01 A3009 RMK A01 T00771006  RH  056%=      5-min Rain = 0
KBY1 180046Z 05001KT 08/M01 A3009 RMK A01 T00781006  RH  055%=      5-min Rain = 0
KBY1 180047Z 05001KT 08/M01 A3009 RMK A01 T00791006  RH  055%=      5-min Rain = 0
KBY1 180048Z 05001KT 08/M01 A3009 RMK A01 T00801006  RH  054%=      5-min Rain = 0
KBY1 180049Z 04001KT 08/M01 A3009 RMK A01 T00811006  RH  054%=      5-min Rain = 0
KBY1 180050Z 05001KT 08/M01 A3009 RMK A01 T00811007  RH  054%=      5-min Rain = 0
KBY1 180051Z 05001KT 08/M01 A3009 RMK A01 T00811007  RH  054%=      5-min Rain = 0
KBY1 180052Z 05001KT 08/M01 A3009 RMK A01 T00821005  RH  054%=      5-min Rain = 0
KBY1 180053Z 05001KT 08/M01 A3009 RMK A01 T00831005  RH  054%=      5-min Rain = 0
KBY1 180054Z 05001KT 08/M01 A3009 RMK A01 T00831006  RH  053%=      5-min Rain = 0
KBY1 180055Z 05001KT 08/M01 A3009 RMK A01 T00831005  RH  054%=      5-min Rain = 0
KBY1 180056Z 05001KT 08/M01 A3009 RMK A01 T00831006  RH  054%=      5-min Rain = 0
KBY1 180057Z 06001KT 08/M01 A3009 RMK A01 T00831006  RH  053%=      5-min Rain = 0
KBY1 180058Z 07001KT 08/M01 A3009 RMK A01 T00831006  RH  053%=      5-min Rain = 0
KBY1 180059Z 07001KT 08/M01 A3009 RMK A01 T00821007  RH  053%=      5-min Rain = 0
KBY1 180100Z 07001KT 08/M01 A301 RMK A01 T00781012  RH  053%=      5-min Rain = 0
KBY1 180101Z 07001KT 07/M01 A301 RMK A01 T00731012  RH  055%=      5-min Rain = 0
KBY1 180102Z 07001KT 07/M01 A301 RMK A01 T00701011  RH  057%=      5-min Rain = 0
KBY1 180103Z 06000KT 07/M01 A301 RMK A01 T00701008  RH  058%=      5-min Rain = 0
KBY1 180104Z 05001KT 07/M01 A301 RMK A01 T00721006  RH  057%=      5-min Rain = 0
KBY1 180105Z 04000KT 07/M01 A301 RMK A01 T00741006  RH  057%=      5-min Rain = 0
KBY1 180106Z 00000KT 08/M01 A301 RMK A01 T00761005  RH  056%=      5-min Rain = 0
KBY1 180107Z 00000KT 08/M01 A301 RMK A01 T00781005  RH  056%=      5-min Rain = 0
KBY1 180108Z 00000KT 08/M01 A301 RMK A01 T00801005  RH  055%=      5-min Rain = 0
KBY1 180109Z 00000KT 08/M00 A301 RMK A01 T00821004  RH  055%=      5-min Rain = 0
KBY1 180110Z 00000KT 08/M01 A301 RMK A01 T00811008  RH  053%=      5-min Rain = 0
KBY1 180111Z 00000KT 08/M01 A301 RMK A01 T00751014  RH  053%=      5-min Rain = 0
KBY1 180112Z 00000KT 07/M02 A301 RMK A01 T00701015  RH  055%=      5-min Rain = 0
KBY1 180113Z 00000KT 07/M01 A301 RMK A01 T00681014  RH  056%=      5-min Rain = 0
KBY1 180114Z 00000KT 07/M01 A301 RMK A01 T00661014  RH  057%=      5-min Rain = 0
KBY1 180115Z 00000KT 06/M01 A301 RMK A01 T00641013  RH  058%=      5-min Rain = 0
KBY1 180116Z 00000KT 06/M01 A301 RMK A01 T00631012  RH  059%=      5-min Rain = 0
KBY1 180117Z 00000KT 06/M01 A301 RMK A01 T00611013  RH  059%=      5-min Rain = 0
KBY1 180118Z 00000KT 06/M02 A301 RMK A01 T00571016  RH  059%=      5-min Rain = 0
KBY1 180119Z 00000KT 05/M02 A301 RMK A01 T00531017  RH  061%=      5-min Rain = 0
KBY1 180120Z 07001KT 05/M02 A301 RMK A01 T00501017  RH  062%=      5-min Rain = 0
KBY1 180121Z 05000KT 05/M02 A301 RMK A01 T00481016  RH  063%=      5-min Rain = 0
KBY1 180122Z 07001KT 05/M02 A301 RMK A01 T00461015  RH  065%=      5-min Rain = 0
KBY1 180123Z 07000KT 05/M01 A301 RMK A01 T00461013  RH  066%=      5-min Rain = 0
KBY1 180124Z 00000KT 05/M01 A301 RMK A01 T00461013  RH  065%=      5-min Rain = 0
KBY1 180125Z 06001KT 05/M01 A301 RMK A01 T00471012  RH  066%=      5-min Rain = 0
KBY1 180126Z 04001KT 05/M01 A301 RMK A01 T00471012  RH  066%=      5-min Rain = 0
KBY1 180127Z 03001KT 05/M01 A301 RMK A01 T00471012  RH  065%=      5-min Rain = 0
KBY1 180128Z 04002KT 05/M01 A301 RMK A01 T00471011  RH  066%=      5-min Rain = 0
KBY1 180129Z 04002KT 05/M01 A301 RMK A01 T00491011  RH  065%=      5-min Rain = 0
KBY1 180130Z 04002KT 05/M01 A301 RMK A01 T00501011  RH  065%=      5-min Rain = 0
KBY1 180131Z 04002KT 05/M01 A301 RMK A01 T00521009  RH  065%=      5-min Rain = 0
KBY1 180132Z 04002KT 06/M01 A301 RMK A01 T00551009  RH  064%=      5-min Rain = 0
KBY1 180133Z 04001KT 06/M01 A301 RMK A01 T00561008  RH  063%=      5-min Rain = 0
KBY1 180134Z 04001KT 06/M01 A301 RMK A01 T00591007  RH  063%=      5-min Rain = 0
KBY1 180135Z 04001KT 06/M01 A301 RMK A01 T00611007  RH  062%=      5-min Rain = 0
KBY1 180136Z 04002KT 06/M01 A301 RMK A01 T00631006  RH  061%=      5-min Rain = 0
KBY1 180137Z 04002KT 07/M01 A301 RMK A01 T00661006  RH  060%=      5-min Rain = 0
KBY1 180138Z 04002KT 07/M01 A301 RMK A01 T00671006  RH  060%=      5-min Rain = 0
KBY1 180139Z 03001KT 07/M01 A301 RMK A01 T00681007  RH  059%=      5-min Rain = 0
KBY1 180140Z 04001KT 07/M01 A301 RMK A01 T00671008  RH  059%=      5-min Rain = 0
KBY1 180141Z 04001KT 07/M01 A301 RMK A01 T00661008  RH  059%=      5-min Rain = 0
KBY1 180142Z 05001KT 07/M01 A301 RMK A01 T00651009  RH  059%=      5-min Rain = 0
KBY1 180143Z 06001KT 06/M01 A301 RMK A01 T00641010  RH  059%=      5-min Rain = 0
KBY1 180144Z 08001KT 06/M01 A301 RMK A01 T00611013  RH  059%=      5-min Rain = 0
KBY1 180145Z 08001KT 06/M01 A301 RMK A01 T00591014  RH  060%=      5-min Rain = 0
KBY1 180146Z 08001KT 06/M02 A301 RMK A01 T00571015  RH  060%=      5-min Rain = 0
KBY1 180147Z 06001KT 05/M02 A301 RMK A01 T00521018  RH  061%=      5-min Rain = 0
KBY1 180148Z 06002KT 05/M02 A301 RMK A01 T00481019  RH  062%=      5-min Rain = 0
KBY1 180149Z 06002KT 04/M02 A301 RMK A01 T00441018  RH  064%=      5-min Rain = 0
KBY1 180150Z 05002KT 04/M02 A301 RMK A01 T00431015  RH  066%=      5-min Rain = 0
KBY1 180151Z 05002KT 04/M01 A301 RMK A01 T00441013  RH  067%=      5-min Rain = 0
KBY1 180152Z 05002KT 05/M01 A301 RMK A01 T00451012  RH  066%=      5-min Rain = 0
KBY1 180153Z 05002KT 05/M01 A301 RMK A01 T00471011  RH  066%=      5-min Rain = 0
KBY1 180154Z 05002KT 05/M01 A301 RMK A01 T00491009  RH  066%=      5-min Rain = 0
KBY1 180155Z 04001KT 05/M01 A301 RMK A01 T00521009  RH  065%=      5-min Rain = 0
KBY1 180156Z 04001KT 06/M01 A301 RMK A01 T00551008  RH  064%=      5-min Rain = 0
KBY1 180157Z 04001KT 06/M01 A301 RMK A01 T00561008  RH  063%=      5-min Rain = 0
KBY1 180158Z 05001KT 06/M01 A301 RMK A01 T00581009  RH  062%=      5-min Rain = 0
KBY1 180159Z 04001KT 06/M01 A301 RMK A01 T00591009  RH  062%=      5-min Rain = 0
KBY1 180200Z 05001KT 06/M01 A301 RMK A01 T00591010  RH  061%=      5-min Rain = 0
KBY1 180201Z 06001KT 06/M01 A301 RMK A01 T00591009  RH  062%=      5-min Rain = 0
KBY1 180202Z 07001KT 06/M01 A301 RMK A01 T00601009  RH  061%=      5-min Rain = 0
KBY1 180203Z 08001KT 06/M01 A301 RMK A01 T00601010  RH  061%=      5-min Rain = 0
KBY1 180204Z 09002KT 06/M01 A301 RMK A01 T00591011  RH  061%=      5-min Rain = 0
KBY1 180205Z 09002KT 06/M01 A301 RMK A01 T00571012  RH  061%=      5-min Rain = 0
KBY1 180206Z 09002KT 06/M01 A301 RMK A01 T00561013  RH  061%=      5-min Rain = 0
KBY1 180207Z 09002KT 05/M01 A301 RMK A01 T00541014  RH  062%=      5-min Rain = 0
KBY1 180208Z 08002KT 05/M01 A301 RMK A01 T00531014  RH  062%=      5-min Rain = 0
KBY1 180209Z 08002KT 05/M01 A301 RMK A01 T00511014  RH  063%=      5-min Rain = 0
KBY1 180210Z 09002KT 05/M01 A301 RMK A01 T00511014  RH  063%=      5-min Rain = 0
KBY1 180211Z 09002KT 05/M01 A301 RMK A01 T00501014  RH  064%=      5-min Rain = 0
KBY1 180212Z 09002KT 05/M01 A301 RMK A01 T00491013  RH  064%=      5-min Rain = 0
KBY1 180213Z 08001KT 05/M01 A301 RMK A01 T00491014  RH  064%=      5-min Rain = 0
KBY1 180214Z 10001KT 05/M02 A301 RMK A01 T00471016  RH  064%=      5-min Rain = 0
KBY1 180215Z 11001KT 04/M02 A301 RMK A01 T00441019  RH  064%=      5-min Rain = 0
KBY1 180216Z 10000KT 04/M02 A301 RMK A01 T00401021  RH  064%=      5-min Rain = 0
KBY1 180217Z 10001KT 04/M02 A301 RMK A01 T00361022  RH  066%=      5-min Rain = 0
KBY1 180218Z 08001KT 03/M02 A301 RMK A01 T00341022  RH  067%=      5-min Rain = 0
KBY1 180219Z 08001KT 03/M02 A301 RMK A01 T00321022  RH  067%=      5-min Rain = 0
KBY1 180220Z 08001KT 03/M02 A301 RMK A01 T00311021  RH  068%=      5-min Rain = 0
KBY1 180221Z 09001KT 03/M02 A301 RMK A01 T00311018  RH  070%=      5-min Rain = 0
KBY1 180222Z 12001KT 03/M01 A301 RMK A01 T00331013  RH  072%=      5-min Rain = 0
KBY1 180223Z 15001KT 04/M01 A301 RMK A01 T00371011  RH  071%=      5-min Rain = 0
KBY1 180224Z 15001KT 04/M01 A301 RMK A01 T00401010  RH  070%=      5-min Rain = 0
KBY1 180225Z 14001KT 04/M01 A301 RMK A01 T00441009  RH  068%=      5-min Rain = 0
KBY1 180226Z 13002KT 05/M01 A301 RMK A01 T00481009  RH  067%=      5-min Rain = 0
KBY1 180227Z 13002KT 05/M01 A301 RMK A01 T00511009  RH  065%=      5-min Rain = 0
KBY1 180228Z 14001KT 05/M01 A301 RMK A01 T00531009  RH  064%=      5-min Rain = 0
KBY1 180229Z 14001KT 05/M01 A301 RMK A01 T00531009  RH  064%=      5-min Rain = 0
KBY1 180230Z 15001KT 06/M01 A301 RMK A01 T00551008  RH  064%=      5-min Rain = 0
KBY1 180231Z 14001KT 06/M01 A301 RMK A01 T00561008  RH  063%=      5-min Rain = 0
KBY1 180232Z 12001KT 06/M01 A301 RMK A01 T00561009  RH  063%=      5-min Rain = 0
KBY1 180233Z 11001KT 06/M01 A301 RMK A01 T00571009  RH  063%=      5-min Rain = 0
KBY1 180234Z 09002KT 05/M01 A301 RMK A01 T00541014  RH  061%=      5-min Rain = 0
KBY1 180235Z 09002KT 05/M02 A301 RMK A01 T00451021  RH  062%=      5-min Rain = 0
KBY1 180236Z 11002KT 04/M02 A301 RMK A01 T00391020  RH  065%=      5-min Rain = 0
KBY1 180237Z 11001KT 04/M02 A301 RMK A01 T00371021  RH  066%=      5-min Rain = 0
KBY1 180238Z 08000KT 04/M02 A301 RMK A01 T00351019  RH  068%=      5-min Rain = 0
KBY1 180239Z 06001KT 04/M02 A301 RMK A01 T00361016  RH  069%=      5-min Rain = 0
KBY1 180240Z 07001KT 04/M01 A301 RMK A01 T00391013  RH  069%=      5-min Rain = 0
KBY1 180241Z 00000KT 04/M01 A301 RMK A01 T00411011  RH  069%=      5-min Rain = 0
KBY1 180242Z 16000KT 04/M01 A301 RMK A01 T00431010  RH  068%=      5-min Rain = 0
KBY1 180243Z 15000KT 05/M01 A301 RMK A01 T00451010  RH  067%=      5-min Rain = 0
KBY1 180244Z 13001KT 05/M01 A301 RMK A01 T00471010  RH  066%=      5-min Rain = 0
KBY1 180245Z 13001KT 05/M01 A301 RMK A01 T00481010  RH  066%=      5-min Rain = 0
KBY1 180246Z 12001KT 05/M01 A301 RMK A01 T00491010  RH  065%=      5-min Rain = 0
KBY1 180247Z 12001KT 05/M01 A301 RMK A01 T00491011  RH  065%=      5-min Rain = 0
KBY1 180248Z 12001KT 05/M01 A301 RMK A01 T00501011  RH  065%=      5-min Rain = 0
KBY1 180249Z 12000KT 05/M01 A3011 RMK A01 T00501011  RH  065%=      5-min Rain = 0
KBY1 180250Z 00000KT 05/M01 A3011 RMK A01 T00501012  RH  065%=      5-min Rain = 0
KBY1 180251Z 00000KT 05/M02 A3011 RMK A01 T00491015  RH  063%=      5-min Rain = 0
KBY1 180252Z 00000KT 05/M02 A3011 RMK A01 T00461019  RH  063%=      5-min Rain = 0
KBY1 180253Z 00000KT 04/M02 A3011 RMK A01 T00431021  RH  063%=      5-min Rain = 0
KBY1 180254Z 00000KT 04/M02 A3011 RMK A01 T00391022  RH  065%=      5-min Rain = 0
KBY1 180255Z 00000KT 04/M02 A3011 RMK A01 T00371022  RH  066%=      5-min Rain = 0
KBY1 180256Z 00000KT 04/M02 A3011 RMK A01 T00351021  RH  067%=      5-min Rain = 0
KBY1 180257Z 00000KT 03/M02 A3011 RMK A01 T00321019  RH  069%=      5-min Rain = 0
KBY1 180258Z 00000KT 03/M01 A3011 RMK A01 T00331013  RH  072%=      5-min Rain = 0
KBY1 180259Z 00000KT 04/M01 A3011 RMK A01 T00371010  RH  072%=      5-min Rain = 0
KBY1 180300Z 06000KT 04/M01 A301 RMK A01 T00411008  RH  070%=      5-min Rain = 0
KBY1 180301Z 06000KT 04/M01 A301 RMK A01 T00441011  RH  067%=      5-min Rain = 0
KBY1 180302Z 05001KT 04/M01 A301 RMK A01 T00421014  RH  067%=      5-min Rain = 0
KBY1 180303Z 05001KT 04/M01 A3011 RMK A01 T00411013  RH  068%=      5-min Rain = 0
KBY1 180304Z 04001KT 04/M01 A3011 RMK A01 T00411012  RH  069%=      5-min Rain = 0
KBY1 180305Z 03001KT 04/M01 A3011 RMK A01 T00431011  RH  068%=      5-min Rain = 0
KBY1 180306Z 03001KT 04/M01 A3011 RMK A01 T00441010  RH  068%=      5-min Rain = 0
KBY1 180307Z 03001KT 05/M01 A3011 RMK A01 T00461010  RH  067%=      5-min Rain = 0
KBY1 180308Z 03001KT 05/M01 A301 RMK A01 T00471010  RH  067%=      5-min Rain = 0
KBY1 180309Z 04001KT 05/M01 A301 RMK A01 T00481010  RH  066%=      5-min Rain = 0
KBY1 180310Z 05001KT 05/M01 A301 RMK A01 T00481009  RH  066%=      5-min Rain = 0
KBY1 180311Z 05001KT 05/M01 A301 RMK A01 T00491010  RH  066%=      5-min Rain = 0
KBY1 180312Z 05000KT 05/M01 A301 RMK A01 T00491010  RH  066%=      5-min Rain = 0
KBY1 180313Z 00000KT 05/M01 A301 RMK A01 T00491009  RH  066%=      5-min Rain = 0
KBY1 180314Z 00000KT 05/M01 A301 RMK A01 T00501008  RH  066%=      5-min Rain = 0
KBY1 180315Z 00000KT 05/M01 A301 RMK A01 T00501012  RH  064%=      5-min Rain = 0
KBY1 180316Z 00000KT 04/M02 A301 RMK A01 T00421024  RH  062%=      5-min Rain = 0
KBY1 180317Z 22001KT 03/M03 A301 RMK A01 T00301033  RH  063%=      5-min Rain = 0
KBY1 180318Z 22002KT 02/M03 A301 RMK A01 T00211034  RH  067%=      5-min Rain = 0
KBY1 180319Z 22002KT 02/M03 A301 RMK A01 T00161030  RH  071%=      5-min Rain = 0
KBY1 180320Z 22002KT 02/M03 A301 RMK A01 T00161026  RH  074%=      5-min Rain = 0
KBY1 180321Z 21001KT 01/M03 A301 RMK A01 T00141028  RH  073%=      5-min Rain = 0
KBY1 180322Z 21002KT 01/M03 A301 RMK A01 T00121030  RH  073%=      5-min Rain = 0
KBY1 180323Z 22002KT 01/M03 A301 RMK A01 T00101030  RH  075%=      5-min Rain = 0
KBY1 180324Z 22002KT 01/M03 A301 RMK A01 T00091029  RH  076%=      5-min Rain = 0
KBY1 180325Z 22002KT 01/M03 A301 RMK A01 T00071031  RH  076%=      5-min Rain = 0
KBY1 180326Z 23001KT 01/M03 A301 RMK A01 T00061032  RH  076%=      5-min Rain = 0
KBY1 180327Z 24000KT 01/M03 A301 RMK A01 T00051032  RH  077%=      5-min Rain = 0
KBY1 180328Z 24000KT 00/M03 A301 RMK A01 T00031032  RH  077%=      5-min Rain = 0
KBY1 180329Z 00000KT 00/M03 A301 RMK A01 T00021033  RH  078%=      5-min Rain = 0
KBY1 180330Z 00000KT 00/M03 A301 RMK A01 T00011031  RH  079%=      5-min Rain = 0
KBY1 180331Z 00000KT 00/M03 A301 RMK A01 T00021029  RH  080%=      5-min Rain = 0
KBY1 180332Z 00000KT 00/M03 A301 RMK A01 T00031025  RH  081%=      5-min Rain = 0
KBY1 180333Z 00000KT 01/M02 A301 RMK A01 T00051021  RH  083%=      5-min Rain = 0
KBY1 180334Z 00000KT 01/M02 A301 RMK A01 T00071019  RH  083%=      5-min Rain = 0
KBY1 180335Z 00000KT 01/M02 A301 RMK A01 T00081020  RH  082%=      5-min Rain = 0
KBY1 180336Z 00000KT 01/M02 A301 RMK A01 T00071024  RH  080%=      5-min Rain = 0
KBY1 180337Z 00000KT 01/M03 A301 RMK A01 T00051030  RH  077%=      5-min Rain = 0
KBY1 180338Z 05000KT 00/M03 A301 RMK A01 T00041033  RH  077%=      5-min Rain = 0
KBY1 180339Z 05001KT 00/M03 A301 RMK A01 T00021033  RH  077%=      5-min Rain = 0
KBY1 180340Z 05001KT 00/M03 A301 RMK A01 T00021032  RH  078%=      5-min Rain = 0
KBY1 180341Z 04002KT 00/M03 A301 RMK A01 T00011032  RH  079%=      5-min Rain = 0
KBY1 180342Z 04002KT 00/03 A301 RMK A01 T00000-31  RH  079%=      5-min Rain = 0
KBY1 180343Z 04002KT 00/M03 A301 RMK A01 T00011028  RH  081%=      5-min Rain = 0
KBY1 180344Z 04002KT 00/M03 A301 RMK A01 T00021026  RH  082%=      5-min Rain = 0
KBY1 180345Z 03002KT 00/M02 A301 RMK A01 T00041023  RH  082%=      5-min Rain = 0
KBY1 180346Z 02002KT 01/M02 A301 RMK A01 T00061024  RH  081%=      5-min Rain = 0
KBY1 180347Z 02001KT 01/M03 A301 RMK A01 T00071025  RH  080%=      5-min Rain = 0
KBY1 180348Z 02001KT 01/M03 A301 RMK A01 T00071026  RH  079%=      5-min Rain = 0
KBY1 180349Z 01001KT 01/M03 A301 RMK A01 T00071027  RH  078%=      5-min Rain = 0
KBY1 180350Z 35001KT 01/M03 A301 RMK A01 T00061028  RH  078%=      5-min Rain = 0
KBY1 180351Z 34001KT 01/M03 A301 RMK A01 T00061027  RH  078%=      5-min Rain = 0
KBY1 180352Z 33001KT 01/M03 A301 RMK A01 T00071026  RH  079%=      5-min Rain = 0
KBY1 180353Z 33001KT 01/M03 A301 RMK A01 T00071026  RH  079%=      5-min Rain = 0
KBY1 180354Z 31000KT 01/M03 A301 RMK A01 T00071026  RH  079%=      5-min Rain = 0
KBY1 180355Z 00000KT 01/M03 A301 RMK A01 T00071026  RH  079%=      5-min Rain = 0
KBY1 180356Z 21001KT 01/M03 A301 RMK A01 T00071026  RH  079%=      5-min Rain = 0
KBY1 180357Z 21000KT 01/M03 A301 RMK A01 T00061027  RH  079%=      5-min Rain = 0
KBY1 180358Z 00000KT 01/M03 A301 RMK A01 T00061027  RH  079%=      5-min Rain = 0
KBY1 180359Z 00000KT 01/M03 A301 RMK A01 T00061027  RH  079%=      5-min Rain = 0
KBY1 180400Z 00000KT 01/M03 A301 RMK A01 T00061027  RH  079%=      5-min Rain = 0
KBY1 180401Z 00000KT 01/M03 A301 RMK A01 T00061026  RH  079%=      5-min Rain = 0
KBY1 180402Z 00000KT 01/M03 A301 RMK A01 T00061026  RH  079%=      5-min Rain = 0
KBY1 180403Z 00000KT 01/M03 A301 RMK A01 T00061025  RH  079%=      5-min Rain = 0
KBY1 180404Z 00000KT 01/M03 A301 RMK A01 T00061025  RH  079%=      5-min Rain = 0
KBY1 180405Z 08000KT 01/M03 A301 RMK A01 T00061025  RH  079%=      5-min Rain = 0
KBY1 180406Z 08000KT 01/M03 A3009 RMK A01 T00061025  RH  079%=      5-min Rain = 0
KBY1 180407Z 00000KT 01/M03 A3009 RMK A01 T00061025  RH  079%=      5-min Rain = 0
KBY1 180408Z 00000KT 01/M02 A3009 RMK A01 T00071024  RH  079%=      5-min Rain = 0
KBY1 180409Z 00000KT 01/M02 A3009 RMK A01 T00081024  RH  079%=      5-min Rain = 0
KBY1 180410Z 00000KT 01/M02 A3009 RMK A01 T00091024  RH  079%=      5-min Rain = 0
KBY1 180411Z 00000KT 01/M02 A3009 RMK A01 T00101024  RH  078%=      5-min Rain = 0
KBY1 180412Z 00000KT 01/M02 A3009 RMK A01 T00101024  RH  078%=      5-min Rain = 0
KBY1 180413Z 00000KT 01/M02 A3009 RMK A01 T00111023  RH  078%=      5-min Rain = 0
KBY1 180414Z 00000KT 01/M02 A3008 RMK A01 T00111023  RH  078%=      5-min Rain = 0
KBY1 180415Z 00000KT 01/M02 A3008 RMK A01 T00111023  RH  078%=      5-min Rain = 0
KBY1 180416Z 00000KT 01/M02 A3008 RMK A01 T00111023  RH  078%=      5-min Rain = 0
KBY1 180417Z 25001KT 01/M02 A3008 RMK A01 T00111023  RH  078%=      5-min Rain = 0
KBY1 180418Z 25001KT 01/M02 A3008 RMK A01 T00121021  RH  078%=      5-min Rain = 0
KBY1 180419Z 25000KT 01/M02 A3008 RMK A01 T00121021  RH  078%=      5-min Rain = 0
KBY1 180420Z 00000KT 01/M02 A3008 RMK A01 T00121022  RH  078%=      5-min Rain = 0
KBY1 180421Z 00000KT 01/M02 A3008 RMK A01 T00121022  RH  078%=      5-min Rain = 0
KBY1 180422Z 00000KT 01/M02 A3008 RMK A01 T00111023  RH  078%=      5-min Rain = 0
KBY1 180423Z 00000KT 01/M03 A3008 RMK A01 T00101025  RH  078%=      5-min Rain = 0
KBY1 180424Z 00000KT 01/M03 A3008 RMK A01 T00081027  RH  078%=      5-min Rain = 0
KBY1 180425Z 00000KT 01/M03 A3008 RMK A01 T00061028  RH  078%=      5-min Rain = 0
KBY1 180426Z 03001KT 01/M03 A3008 RMK A01 T00061027  RH  078%=      5-min Rain = 0
KBY1 180427Z 03001KT 01/M03 A3008 RMK A01 T00061026  RH  079%=      5-min Rain = 0
KBY1 180428Z 03001KT 01/M02 A3008 RMK A01 T00071024  RH  080%=      5-min Rain = 0
KBY1 180429Z 03001KT 01/M02 A3008 RMK A01 T00081023  RH  079%=      5-min Rain = 0
KBY1 180430Z 04001KT 01/M02 A3008 RMK A01 T00101023  RH  079%=      5-min Rain = 0
KBY1 180431Z 06001KT 01/M02 A3008 RMK A01 T00101023  RH  078%=      5-min Rain = 0
KBY1 180432Z 06001KT 01/M02 A3007 RMK A01 T00111023  RH  078%=      5-min Rain = 0
KBY1 180433Z 06000KT 01/M02 A3007 RMK A01 T00111022  RH  078%=      5-min Rain = 0
KBY1 180434Z 00000KT 01/M02 A3007 RMK A01 T00111022  RH  078%=      5-min Rain = 0
KBY1 180435Z 00000KT 01/M02 A3007 RMK A01 T00121022  RH  078%=      5-min Rain = 0
KBY1 180436Z 00000KT 01/M02 A3007 RMK A01 T00121021  RH  079%=      5-min Rain = 0
KBY1 180437Z 00000KT 01/M02 A3008 RMK A01 T00121020  RH  079%=      5-min Rain = 0
KBY1 180438Z 00000KT 01/M02 A3008 RMK A01 T00121021  RH  078%=      5-min Rain = 0
KBY1 180439Z 25000KT 01/M02 A3008 RMK A01 T00121021  RH  078%=      5-min Rain = 0
KBY1 180440Z 24000KT 01/M02 A3007 RMK A01 T00121022  RH  078%=      5-min Rain = 0
KBY1 180441Z 24000KT 01/M02 A3007 RMK A01 T00121022  RH  078%=      5-min Rain = 0
KBY1 180442Z 24000KT 01/M02 A3007 RMK A01 T00111023  RH  078%=      5-min Rain = 0
KBY1 180443Z 00000KT 01/M02 A3007 RMK A01 T00111022  RH  078%=      5-min Rain = 0
KBY1 180444Z 24000KT 01/M02 A3007 RMK A01 T00101022  RH  079%=      5-min Rain = 0
KBY1 180445Z 24001KT 01/M02 A3007 RMK A01 T00091024  RH  079%=      5-min Rain = 0
KBY1 180446Z 23001KT 01/M02 A3007 RMK A01 T00081023  RH  080%=      5-min Rain = 0
KBY1 180447Z 23001KT 01/M02 A3007 RMK A01 T00071023  RH  080%=      5-min Rain = 0
KBY1 180448Z 22001KT 01/M02 A3007 RMK A01 T00071022  RH  081%=      5-min Rain = 0
KBY1 180449Z 22000KT 01/M02 A3007 RMK A01 T00071022  RH  081%=      5-min Rain = 0
KBY1 180450Z 00000KT 01/M02 A3007 RMK A01 T00071022  RH  081%=      5-min Rain = 0
KBY1 180451Z 24001KT 01/M02 A3007 RMK A01 T00061024  RH  081%=      5-min Rain = 0
KBY1 180452Z 24001KT 01/M03 A3007 RMK A01 T00051025  RH  080%=      5-min Rain = 0
KBY1 180453Z 24001KT 01/M03 A3007 RMK A01 T00051025  RH  080%=      5-min Rain = 0
KBY1 180454Z 25001KT 00/M03 A3007 RMK A01 T00041025  RH  081%=      5-min Rain = 0
KBY1 180455Z 23001KT 00/M03 A3007 RMK A01 T00041025  RH  081%=      5-min Rain = 0
KBY1 180456Z 23001KT 00/M03 A3007 RMK A01 T00041025  RH  081%=      5-min Rain = 0
KBY1 180457Z 22001KT 00/M03 A3007 RMK A01 T00041025  RH  081%=      5-min Rain = 0
KBY1 180458Z 22001KT 00/M02 A3007 RMK A01 T00041024  RH  082%=      5-min Rain = 0
KBY1 180459Z 23001KT 00/M02 A3007 RMK A01 T00041024  RH  081%=      5-min Rain = 0
KBY1 180500Z 23001KT 00/M02 A3006 RMK A01 T00041024  RH  081%=      5-min Rain = 0
KBY1 180501Z 23000KT 00/M03 A3006 RMK A01 T00041025  RH  081%=      5-min Rain = 0
KBY1 180502Z 00000KT 00/M03 A3006 RMK A01 T00031027  RH  080%=      5-min Rain = 0
KBY1 180503Z 00000KT 00/M03 A3007 RMK A01 T00011029  RH  080%=      5-min Rain = 0
KBY1 180504Z 00000KT 00/03 A3006 RMK A01 T00000-30  RH  080%=      5-min Rain = 0
KBY1 180505Z 00000KT M00/M03 A3006 RMK A01 T10011030  RH  081%=      5-min Rain = 0
KBY1 180506Z 00000KT M00/M03 A3006 RMK A01 T10011029  RH  081%=      5-min Rain = 0
KBY1 180507Z 00000KT M00/M03 A3006 RMK A01 T10011029  RH  081%=      5-min Rain = 0
KBY1 180508Z 00000KT M00/M03 A3006 RMK A01 T10011029  RH  082%=      5-min Rain = 0
KBY1 180509Z 00000KT 00/03 A3006 RMK A01 T00-00-25  RH  083%=      5-min Rain = 0
KBY1 180510Z 00000KT 00/M02 A3006 RMK A01 T00031020  RH  084%=      5-min Rain = 0
KBY1 180511Z 00000KT 00/M02 A3006 RMK A01 T00041020  RH  084%=      5-min Rain = 0
KBY1 180512Z 00000KT 01/M02 A3006 RMK A01 T00051021  RH  082%=      5-min Rain = 0
KBY1 180513Z 00000KT 00/M03 A3006 RMK A01 T00041025  RH  081%=      5-min Rain = 0
KBY1 180514Z 00000KT 00/M03 A3006 RMK A01 T00021029  RH  079%=      5-min Rain = 0
KBY1 180515Z 00000KT 00/M03 A3006 RMK A01 T00011030  RH  080%=      5-min Rain = 0
KBY1 180516Z 00000KT M00/M03 A3006 RMK A01 T10011031  RH  080%=      5-min Rain = 0
KBY1 180517Z 00000KT M00/M03 A3006 RMK A01 T10021030  RH  081%=      5-min Rain = 0
KBY1 180518Z 28000KT M00/M03 A3006 RMK A01 T10021028  RH  082%=      5-min Rain = 0
KBY1 180519Z 30002KT 00/03 A3006 RMK A01 T00-00-26  RH  083%=      5-min Rain = 0
KBY1 180520Z 30002KT 00/M03 A3006 RMK A01 T00011025  RH  083%=      5-min Rain = 0
KBY1 180521Z 30002KT 00/M03 A3006 RMK A01 T00011025  RH  083%=      5-min Rain = 0
KBY1 180522Z 29002KT 00/M03 A3006 RMK A01 T00011025  RH  082%=      5-min Rain = 0
KBY1 180523Z 28002KT 00/M03 A3006 RMK A01 T00021025  RH  082%=      5-min Rain = 0
KBY1 180524Z 28002KT 00/M03 A3006 RMK A01 T00011027  RH  082%=      5-min Rain = 0
KBY1 180525Z 29002KT 00/03 A3005 RMK A01 T00-00-26  RH  083%=      5-min Rain = 0
KBY1 180526Z 27001KT 00/03 A3005 RMK A01 T00-00-25  RH  083%=      5-min Rain = 0
KBY1 180527Z 26001KT 00/02 A3005 RMK A01 T00-00-24  RH  084%=      5-min Rain = 0
KBY1 180528Z 26001KT 00/02 A3005 RMK A01 T00000-24  RH  084%=      5-min Rain = 0
KBY1 180529Z 29001KT 00/03 A3005 RMK A01 T00-00-25  RH  083%=      5-min Rain = 0
KBY1 180530Z 31000KT M00/M03 A3005 RMK A01 T10021028  RH  083%=      5-min Rain = 0
KBY1 180531Z 34001KT M00/M03 A3005 RMK A01 T10041031  RH  082%=      5-min Rain = 0
KBY1 180532Z 34002KT M01/M03 A3005 RMK A01 T10061034  RH  082%=      5-min Rain = 0
KBY1 180533Z 33002KT M01/M03 A3006 RMK A01 T10081034  RH  082%=      5-min Rain = 0
KBY1 180534Z 34002KT M01/M03 A3006 RMK A01 T10091034  RH  083%=      5-min Rain = 0
KBY1 180535Z 34002KT M01/M03 A3006 RMK A01 T10101033  RH  084%=      5-min Rain = 0
KBY1 180536Z 01001KT M01/M03 A3006 RMK A01 T10101032  RH  085%=      5-min Rain = 0
KBY1 180537Z 01001KT M01/M03 A3006 RMK A01 T10101032  RH  085%=      5-min Rain = 0
KBY1 180538Z 04001KT M01/M03 A3006 RMK A01 T10101032  RH  085%=      5-min Rain = 0
KBY1 180539Z 03001KT M01/M03 A3006 RMK A01 T10101031  RH  085%=      5-min Rain = 0
KBY1 180540Z 03000KT M01/M03 A3006 RMK A01 T10101031  RH  086%=      5-min Rain = 0
KBY1 180541Z 36000KT M01/M03 A3006 RMK A01 T10101031  RH  086%=      5-min Rain = 0
KBY1 180542Z 35000KT M01/M03 A3006 RMK A01 T10101031  RH  086%=      5-min Rain = 0
KBY1 180543Z 33000KT M01/M03 A3006 RMK A01 T10101030  RH  086%=      5-min Rain = 0
KBY1 180544Z 13000KT M01/M03 A3006 RMK A01 T10091028  RH  087%=      5-min Rain = 0
KBY1 180545Z 14000KT M01/M03 A3006 RMK A01 T10091029  RH  086%=      5-min Rain = 0
KBY1 180546Z 16001KT M01/M03 A3006 RMK A01 T10091031  RH  085%=      5-min Rain = 0
KBY1 180547Z 18001KT M01/M03 A3005 RMK A01 T10101032  RH  085%=      5-min Rain = 0
KBY1 180548Z 19001KT M01/M03 A3005 RMK A01 T10101032  RH  086%=      5-min Rain = 0
KBY1 180549Z 20001KT M01/M03 A3005 RMK A01 T10111031  RH  086%=      5-min Rain = 0
KBY1 180550Z 19002KT M01/M03 A3005 RMK A01 T10121033  RH  086%=      5-min Rain = 0
KBY1 180551Z 20001KT M01/M03 A3005 RMK A01 T10121033  RH  086%=      5-min Rain = 0
KBY1 180552Z 22001KT M01/M03 A3005 RMK A01 T10121031  RH  087%=      5-min Rain = 0
KBY1 180553Z 23000KT M01/M03 A3005 RMK A01 T10091027  RH  088%=      5-min Rain = 0
KBY1 180554Z 23000KT M01/M03 A3005 RMK A01 T10081025  RH  088%=      5-min Rain = 0
KBY1 180555Z 24001KT M01/M02 A3005 RMK A01 T10061023  RH  088%=      5-min Rain = 0
KBY1 180556Z 26000KT M00/M02 A3005 RMK A01 T10041022  RH  088%=      5-min Rain = 0
KBY1 180557Z 30001KT M00/M02 A3005 RMK A01 T10021020  RH  088%=      5-min Rain = 0
KBY1 180558Z 27001KT 00/02 A3005 RMK A01 T00-00-18  RH  088%=      5-min Rain = 0
KBY1 180559Z 30001KT 00/M02 A3005 RMK A01 T00011020  RH  086%=      5-min Rain = 0

Page generated in 0.141 seconds.